Observation data for Throckmorton on 09/11/2017      Previous  Date  Next       Current Mesonet Observations  Soil Data  Daily Summary Page  Observations in Plain Language
KTH1 110500Z 11001KT 17/11 A3018 RMK A01 T01730113  RH  068%=      5-min Rain = 0
KTH1 110501Z 11002KT 17/11 A3018 RMK A01 T01730113  RH  068%=      5-min Rain = 0
KTH1 110502Z 11002KT 17/11 A3018 RMK A01 T01730113  RH  068%=      5-min Rain = 0
KTH1 110503Z 10002KT 17/11 A3018 RMK A01 T01730112  RH  067%=      5-min Rain = 0
KTH1 110504Z 10002KT 17/11 A3018 RMK A01 T01730112  RH  067%=      5-min Rain = 0
KTH1 110505Z 10002KT 17/11 A3018 RMK A01 T01730113  RH  068%=      5-min Rain = 0
KTH1 110506Z 10002KT 17/11 A3018 RMK A01 T01720112  RH  068%=      5-min Rain = 0
KTH1 110507Z 10002KT 17/11 A3018 RMK A01 T01720112  RH  068%=      5-min Rain = 0
KTH1 110508Z 10002KT 17/11 A3018 RMK A01 T01710112  RH  068%=      5-min Rain = 0
KTH1 110509Z 10003KT 17/11 A3018 RMK A01 T01710113  RH  068%=      5-min Rain = 0
KTH1 110510Z 10003KT 17/11 A3018 RMK A01 T01700112  RH  069%=      5-min Rain = 0
KTH1 110511Z 10003KT 17/11 A3018 RMK A01 T01700113  RH  069%=      5-min Rain = 0
KTH1 110512Z 10003KT 17/11 A3018 RMK A01 T01710112  RH  069%=      5-min Rain = 0
KTH1 110513Z 10003KT 17/11 A3018 RMK A01 T01700112  RH  068%=      5-min Rain = 0
KTH1 110514Z 09003KT 17/11 A3018 RMK A01 T01710113  RH  069%=      5-min Rain = 0
KTH1 110515Z 10003KT 17/11 A3018 RMK A01 T01710113  RH  069%=      5-min Rain = 0
KTH1 110516Z 09003KT 17/11 A3018 RMK A01 T01710113  RH  069%=      5-min Rain = 0
KTH1 110517Z 09003KT 17/11 A3018 RMK A01 T01700112  RH  069%=      5-min Rain = 0
KTH1 110518Z 09003KT 17/11 A3018 RMK A01 T01710113  RH  069%=      5-min Rain = 0
KTH1 110519Z 09003KT 17/11 A3018 RMK A01 T01710112  RH  069%=      5-min Rain = 0
KTH1 110520Z 09003KT 17/11 A3018 RMK A01 T01700112  RH  069%=      5-min Rain = 0
KTH1 110521Z 10003KT 17/11 A3018 RMK A01 T01700112  RH  069%=      5-min Rain = 0
KTH1 110522Z 10002KT 17/11 A3018 RMK A01 T01700112  RH  068%=      5-min Rain = 0
KTH1 110523Z 11002KT 17/11 A3018 RMK A01 T01700111  RH  068%=      5-min Rain = 0
KTH1 110524Z 10002KT 17/11 A3018 RMK A01 T01700111  RH  068%=      5-min Rain = 0
KTH1 110525Z 10002KT 17/11 A3018 RMK A01 T01700111  RH  068%=      5-min Rain = 0
KTH1 110526Z 10002KT 17/11 A3018 RMK A01 T01700111  RH  068%=      5-min Rain = 0
KTH1 110527Z 10002KT 17/11 A3018 RMK A01 T01700111  RH  068%=      5-min Rain = 0
KTH1 110528Z 10003KT 17/11 A3018 RMK A01 T01700111  RH  068%=      5-min Rain = 0
KTH1 110529Z 10003KT 17/11 A3018 RMK A01 T01690111  RH  069%=      5-min Rain = 0
KTH1 110530Z 10003KT 17/11 A3018 RMK A01 T01690112  RH  069%=      5-min Rain = 0
KTH1 110531Z 10003KT 17/11 A3018 RMK A01 T01680112  RH  069%=      5-min Rain = 0
KTH1 110532Z 10003KT 17/11 A3018 RMK A01 T01680112  RH  069%=      5-min Rain = 0
KTH1 110533Z 11003KT 17/11 A3018 RMK A01 T01670112  RH  070%=      5-min Rain = 0
KTH1 110534Z 11003KT 17/11 A3018 RMK A01 T01670111  RH  070%=      5-min Rain = 0
KTH1 110535Z 11003KT 17/11 A3018 RMK A01 T01660111  RH  070%=      5-min Rain = 0
KTH1 110536Z 11002KT 17/11 A3018 RMK A01 T01660110  RH  070%=      5-min Rain = 0
KTH1 110537Z 11003KT 17/11 A3018 RMK A01 T01660110  RH  070%=      5-min Rain = 0
KTH1 110538Z 11003KT 17/11 A3018 RMK A01 T01660110  RH  070%=      5-min Rain = 0
KTH1 110539Z 11003KT 17/11 A3018 RMK A01 T01660110  RH  070%=      5-min Rain = 0
KTH1 110540Z 11003KT 17/11 A3018 RMK A01 T01660110  RH  070%=      5-min Rain = 0
KTH1 110541Z 12003KT 17/11 A3018 RMK A01 T01660110  RH  069%=      5-min Rain = 0
KTH1 110542Z 12002KT 17/11 A3018 RMK A01 T01660110  RH  069%=      5-min Rain = 0
KTH1 110543Z 12002KT 17/11 A3018 RMK A01 T01660110  RH  069%=      5-min Rain = 0
KTH1 110544Z 12002KT 17/11 A3018 RMK A01 T01670110  RH  069%=      5-min Rain = 0
KTH1 110545Z 11002KT 17/11 A3018 RMK A01 T01670110  RH  069%=      5-min Rain = 0
KTH1 110546Z 11002KT 17/11 A3018 RMK A01 T01670110  RH  069%=      5-min Rain = 0
KTH1 110547Z 11002KT 17/11 A3018 RMK A01 T01670110  RH  069%=      5-min Rain = 0
KTH1 110548Z 11002KT 17/11 A3018 RMK A01 T01670110  RH  069%=      5-min Rain = 0
KTH1 110549Z 11002KT 17/11 A3018 RMK A01 T01670111  RH  070%=      5-min Rain = 0
KTH1 110550Z 11002KT 17/11 A3018 RMK A01 T01660111  RH  070%=      5-min Rain = 0
KTH1 110551Z 12002KT 17/11 A3018 RMK A01 T01650110  RH  070%=      5-min Rain = 0
KTH1 110552Z 11002KT 17/11 A3018 RMK A01 T01650110  RH  070%=      5-min Rain = 0
KTH1 110553Z 11002KT 17/11 A3018 RMK A01 T01650110  RH  070%=      5-min Rain = 0
KTH1 110554Z 11002KT 16/11 A3018 RMK A01 T01640110  RH  070%=      5-min Rain = 0
KTH1 110555Z 11002KT 16/11 A3018 RMK A01 T01640110  RH  070%=      5-min Rain = 0
KTH1 110556Z 11002KT 16/11 A3018 RMK A01 T01630110  RH  071%=      5-min Rain = 0
KTH1 110557Z 11002KT 16/11 A3018 RMK A01 T01630110  RH  071%=      5-min Rain = 0
KTH1 110558Z 12002KT 16/11 A3018 RMK A01 T01630110  RH  071%=      5-min Rain = 0
KTH1 110559Z 12002KT 16/11 A3018 RMK A01 T01630110  RH  071%=      5-min Rain = 0
KTH1 110600Z 12002KT 16/11 A3018 RMK A01 T01630110  RH  071%=      5-min Rain = 0
KTH1 110601Z 12002KT 16/11 A3018 RMK A01 T01630109  RH  071%=      5-min Rain = 0
KTH1 110602Z 12002KT 16/11 A3018 RMK A01 T01630110  RH  070%=      5-min Rain = 0
KTH1 110603Z 12002KT 16/11 A3018 RMK A01 T01640110  RH  070%=      5-min Rain = 0
KTH1 110604Z 12002KT 16/11 A3018 RMK A01 T01640109  RH  070%=      5-min Rain = 0
KTH1 110605Z 12003KT 16/11 A3018 RMK A01 T01640110  RH  070%=      5-min Rain = 0
KTH1 110606Z 12002KT 16/11 A3018 RMK A01 T01640109  RH  070%=      5-min Rain = 0
KTH1 110607Z 12002KT 16/11 A3018 RMK A01 T01640110  RH  070%=      5-min Rain = 0
KTH1 110608Z 13002KT 16/11 A3018 RMK A01 T01630109  RH  070%=      5-min Rain = 0
KTH1 110609Z 13002KT 16/11 A3018 RMK A01 T01640110  RH  070%=      5-min Rain = 0
KTH1 110610Z 14002KT 16/11 A3018 RMK A01 T01640110  RH  070%=      5-min Rain = 0
KTH1 110611Z 14002KT 16/11 A3018 RMK A01 T01640109  RH  070%=      5-min Rain = 0
KTH1 110612Z 14002KT 16/11 A3018 RMK A01 T01630109  RH  070%=      5-min Rain = 0
KTH1 110613Z 14002KT 16/11 A3018 RMK A01 T01630109  RH  070%=      5-min Rain = 0
KTH1 110614Z 14002KT 16/11 A3018 RMK A01 T01630109  RH  070%=      5-min Rain = 0
KTH1 110615Z 13002KT 16/11 A3018 RMK A01 T01630109  RH  070%=      5-min Rain = 0
KTH1 110616Z 13002KT 16/11 A3018 RMK A01 T01630109  RH  071%=      5-min Rain = 0
KTH1 110617Z 13003KT 16/11 A3018 RMK A01 T01630109  RH  071%=      5-min Rain = 0
KTH1 110618Z 13002KT 16/11 A3018 RMK A01 T01620109  RH  071%=      5-min Rain = 0
KTH1 110619Z 12002KT 16/11 A3018 RMK A01 T01620109  RH  071%=      5-min Rain = 0
KTH1 110620Z 12002KT 16/11 A3018 RMK A01 T01620109  RH  071%=      5-min Rain = 0
KTH1 110621Z 12002KT 16/11 A3018 RMK A01 T01620109  RH  070%=      5-min Rain = 0
KTH1 110622Z 11002KT 16/11 A3018 RMK A01 T01620109  RH  070%=      5-min Rain = 0
KTH1 110623Z 11002KT 16/11 A3018 RMK A01 T01620109  RH  071%=      5-min Rain = 0
KTH1 110624Z 11002KT 16/11 A3018 RMK A01 T01620109  RH  071%=      5-min Rain = 0
KTH1 110625Z 12002KT 16/11 A3018 RMK A01 T01620109  RH  071%=      5-min Rain = 0
KTH1 110626Z 12002KT 16/11 A3018 RMK A01 T01610109  RH  071%=      5-min Rain = 0
KTH1 110627Z 12002KT 16/11 A3018 RMK A01 T01610109  RH  071%=      5-min Rain = 0
KTH1 110628Z 12002KT 16/11 A3018 RMK A01 T01610109  RH  071%=      5-min Rain = 0
KTH1 110629Z 11003KT 16/11 A3018 RMK A01 T01600109  RH  072%=      5-min Rain = 0
KTH1 110630Z 11003KT 16/11 A3018 RMK A01 T01590109  RH  072%=      5-min Rain = 0
KTH1 110631Z 11002KT 16/11 A3018 RMK A01 T01590109  RH  072%=      5-min Rain = 0
KTH1 110632Z 11003KT 16/11 A3018 RMK A01 T01590110  RH  072%=      5-min Rain = 0
KTH1 110633Z 11002KT 16/11 A3018 RMK A01 T01590109  RH  072%=      5-min Rain = 0
KTH1 110634Z 11002KT 16/11 A3018 RMK A01 T01580109  RH  073%=      5-min Rain = 0
KTH1 110635Z 11002KT 16/11 A3018 RMK A01 T01580109  RH  073%=      5-min Rain = 0
KTH1 110636Z 11002KT 16/11 A3017 RMK A01 T01570110  RH  073%=      5-min Rain = 0
KTH1 110637Z 11002KT 16/11 A3017 RMK A01 T01570110  RH  074%=      5-min Rain = 0
KTH1 110638Z 11003KT 16/11 A3017 RMK A01 T01560109  RH  074%=      5-min Rain = 0
KTH1 110639Z 11002KT 16/11 A3017 RMK A01 T01560109  RH  074%=      5-min Rain = 0
KTH1 110640Z 11002KT 16/11 A3017 RMK A01 T01560109  RH  074%=      5-min Rain = 0
KTH1 110641Z 11002KT 16/11 A3017 RMK A01 T01560109  RH  074%=      5-min Rain = 0
KTH1 110642Z 11002KT 16/11 A3017 RMK A01 T01550109  RH  074%=      5-min Rain = 0
KTH1 110643Z 11002KT 16/11 A3017 RMK A01 T01550109  RH  074%=      5-min Rain = 0
KTH1 110644Z 11002KT 16/11 A3017 RMK A01 T01550109  RH  074%=      5-min Rain = 0
KTH1 110645Z 11002KT 16/11 A3017 RMK A01 T01550108  RH  074%=      5-min Rain = 0
KTH1 110646Z 11002KT 16/11 A3017 RMK A01 T01550108  RH  074%=      5-min Rain = 0
KTH1 110647Z 11002KT 16/11 A3017 RMK A01 T01550108  RH  073%=      5-min Rain = 0
KTH1 110648Z 11003KT 16/11 A3017 RMK A01 T01550109  RH  074%=      5-min Rain = 0
KTH1 110649Z 11002KT 16/11 A3017 RMK A01 T01560108  RH  073%=      5-min Rain = 0
KTH1 110650Z 12002KT 16/11 A3017 RMK A01 T01570108  RH  073%=      5-min Rain = 0
KTH1 110651Z 12002KT 16/11 A3017 RMK A01 T01590108  RH  072%=      5-min Rain = 0
KTH1 110652Z 13002KT 16/11 A3017 RMK A01 T01600108  RH  071%=      5-min Rain = 0
KTH1 110653Z 13002KT 16/11 A3017 RMK A01 T01620108  RH  071%=      5-min Rain = 0
KTH1 110654Z 14002KT 16/11 A3017 RMK A01 T01630108  RH  070%=      5-min Rain = 0
KTH1 110655Z 15002KT 16/11 A3017 RMK A01 T01630109  RH  070%=      5-min Rain = 0
KTH1 110656Z 15002KT 16/11 A3017 RMK A01 T01630108  RH  070%=      5-min Rain = 0
KTH1 110657Z 15002KT 16/11 A3017 RMK A01 T01640109  RH  070%=      5-min Rain = 0
KTH1 110658Z 15002KT 16/11 A3017 RMK A01 T01640110  RH  070%=      5-min Rain = 0
KTH1 110659Z 15002KT 16/11 A3017 RMK A01 T01640108  RH  069%=      5-min Rain = 0
KTH1 110700Z 15002KT 17/11 A3017 RMK A01 T01650108  RH  069%=      5-min Rain = 0
KTH1 110701Z 15001KT 17/11 A3017 RMK A01 T01660109  RH  069%=      5-min Rain = 0
KTH1 110702Z 16002KT 17/11 A3017 RMK A01 T01660109  RH  069%=      5-min Rain = 0
KTH1 110703Z 15001KT 17/11 A3017 RMK A01 T01660109  RH  069%=      5-min Rain = 0
KTH1 110704Z 15001KT 17/11 A3017 RMK A01 T01660108  RH  069%=      5-min Rain = 0
KTH1 110705Z 16001KT 17/11 A3017 RMK A01 T01670108  RH  068%=      5-min Rain = 0
KTH1 110706Z 16001KT 17/11 A3017 RMK A01 T01670108  RH  068%=      5-min Rain = 0
KTH1 110707Z 17001KT 17/11 A3017 RMK A01 T01670108  RH  068%=      5-min Rain = 0
KTH1 110708Z 17001KT 17/11 A3017 RMK A01 T01680108  RH  068%=      5-min Rain = 0
KTH1 110709Z 17001KT 17/11 A3017 RMK A01 T01680108  RH  068%=      5-min Rain = 0
KTH1 110710Z 17001KT 17/11 A3017 RMK A01 T01680108  RH  068%=      5-min Rain = 0
KTH1 110711Z 17001KT 17/11 A3017 RMK A01 T01680108  RH  068%=      5-min Rain = 0
KTH1 110712Z 17001KT 17/11 A3017 RMK A01 T01680108  RH  068%=      5-min Rain = 0
KTH1 110713Z 17001KT 17/11 A3017 RMK A01 T01670108  RH  068%=      5-min Rain = 0
KTH1 110714Z 17002KT 17/11 A3017 RMK A01 T01670108  RH  068%=      5-min Rain = 0
KTH1 110715Z 17001KT 17/11 A3017 RMK A01 T01670108  RH  068%=      5-min Rain = 0
KTH1 110716Z 17001KT 17/11 A3017 RMK A01 T01670108  RH  068%=      5-min Rain = 0
KTH1 110717Z 17001KT 17/11 A3017 RMK A01 T01670108  RH  068%=      5-min Rain = 0
KTH1 110718Z 17001KT 17/11 A3017 RMK A01 T01670108  RH  068%=      5-min Rain = 0
KTH1 110719Z 17001KT 17/11 A3017 RMK A01 T01670108  RH  068%=      5-min Rain = 0
KTH1 110720Z 17001KT 17/11 A3017 RMK A01 T01670108  RH  068%=      5-min Rain = 0
KTH1 110721Z 17001KT 17/11 A3017 RMK A01 T01670108  RH  068%=      5-min Rain = 0
KTH1 110722Z 17001KT 17/11 A3017 RMK A01 T01670108  RH  068%=      5-min Rain = 0
KTH1 110723Z 17001KT 17/11 A3017 RMK A01 T01670108  RH  068%=      5-min Rain = 0
KTH1 110724Z 18001KT 17/11 A3017 RMK A01 T01670108  RH  068%=      5-min Rain = 0
KTH1 110725Z 19001KT 17/11 A3017 RMK A01 T01680108  RH  068%=      5-min Rain = 0
KTH1 110726Z 19001KT 17/11 A3017 RMK A01 T01690108  RH  068%=      5-min Rain = 0
KTH1 110727Z 19001KT 17/11 A3017 RMK A01 T01690108  RH  067%=      5-min Rain = 0
KTH1 110728Z 20001KT 17/11 A3017 RMK A01 T01700109  RH  067%=      5-min Rain = 0
KTH1 110729Z 20001KT 17/11 A3017 RMK A01 T01710112  RH  068%=      5-min Rain = 0
KTH1 110730Z 22001KT 17/11 A3017 RMK A01 T01710114  RH  069%=      5-min Rain = 0
KTH1 110731Z 21001KT 17/12 A3017 RMK A01 T01710116  RH  070%=      5-min Rain = 0
KTH1 110732Z 20001KT 17/12 A3017 RMK A01 T01710117  RH  070%=      5-min Rain = 0
KTH1 110733Z 20001KT 17/12 A3017 RMK A01 T01700117  RH  071%=      5-min Rain = 0
KTH1 110734Z 19001KT 17/12 A3017 RMK A01 T01690116  RH  071%=      5-min Rain = 0
KTH1 110735Z 19001KT 17/12 A3017 RMK A01 T01680116  RH  071%=      5-min Rain = 0
KTH1 110736Z 19001KT 17/12 A3017 RMK A01 T01680116  RH  071%=      5-min Rain = 0
KTH1 110737Z 18001KT 17/12 A3017 RMK A01 T01670115  RH  071%=      5-min Rain = 0
KTH1 110738Z 18001KT 17/11 A3017 RMK A01 T01670114  RH  071%=      5-min Rain = 0
KTH1 110739Z 18001KT 17/11 A3017 RMK A01 T01660113  RH  071%=      5-min Rain = 0
KTH1 110740Z 20001KT 17/11 A3017 RMK A01 T01660112  RH  071%=      5-min Rain = 0
KTH1 110741Z 21000KT 17/11 A3017 RMK A01 T01650112  RH  071%=      5-min Rain = 0
KTH1 110742Z 21000KT 17/11 A3017 RMK A01 T01650112  RH  071%=      5-min Rain = 0
KTH1 110743Z 22001KT 17/11 A3017 RMK A01 T01650112  RH  071%=      5-min Rain = 0
KTH1 110744Z 23001KT 17/11 A3017 RMK A01 T01650113  RH  071%=      5-min Rain = 0
KTH1 110745Z 23001KT 17/11 A3017 RMK A01 T01650113  RH  072%=      5-min Rain = 0
KTH1 110746Z 23001KT 17/12 A3017 RMK A01 T01650116  RH  073%=      5-min Rain = 0
KTH1 110747Z 23001KT 17/12 A3017 RMK A01 T01650118  RH  074%=      5-min Rain = 0
KTH1 110748Z 23001KT 17/12 A3017 RMK A01 T01650119  RH  074%=      5-min Rain = 0
KTH1 110749Z 23001KT 17/12 A3017 RMK A01 T01650119  RH  074%=      5-min Rain = 0
KTH1 110750Z 24001KT 16/12 A3017 RMK A01 T01640121  RH  076%=      5-min Rain = 0
KTH1 110751Z 24001KT 16/12 A3017 RMK A01 T01640122  RH  076%=      5-min Rain = 0
KTH1 110752Z 24001KT 16/12 A3017 RMK A01 T01640122  RH  076%=      5-min Rain = 0
KTH1 110753Z 23001KT 16/12 A3017 RMK A01 T01640122  RH  076%=      5-min Rain = 0
KTH1 110754Z 23001KT 16/12 A3017 RMK A01 T01630122  RH  076%=      5-min Rain = 0
KTH1 110755Z 23001KT 16/12 A3017 RMK A01 T01630121  RH  076%=      5-min Rain = 0
KTH1 110756Z 22001KT 16/12 A3017 RMK A01 T01630121  RH  076%=      5-min Rain = 0
KTH1 110757Z 21001KT 16/12 A3017 RMK A01 T01630120  RH  075%=      5-min Rain = 0
KTH1 110758Z 21001KT 16/12 A3017 RMK A01 T01640120  RH  075%=      5-min Rain = 0
KTH1 110759Z 20001KT 16/12 A3017 RMK A01 T01640120  RH  075%=      5-min Rain = 0
KTH1 110800Z 20001KT 16/12 A3017 RMK A01 T01630119  RH  075%=      5-min Rain = 0
KTH1 110801Z 19001KT 16/12 A3017 RMK A01 T01640119  RH  075%=      5-min Rain = 0
KTH1 110802Z 19001KT 16/12 A3017 RMK A01 T01630117  RH  074%=      5-min Rain = 0
KTH1 110803Z 18001KT 16/12 A3016 RMK A01 T01630116  RH  074%=      5-min Rain = 0
KTH1 110804Z 17001KT 16/12 A3016 RMK A01 T01630115  RH  073%=      5-min Rain = 0
KTH1 110805Z 16002KT 16/11 A3016 RMK A01 T01620112  RH  072%=      5-min Rain = 0
KTH1 110806Z 15002KT 16/11 A3016 RMK A01 T01610111  RH  072%=      5-min Rain = 0
KTH1 110807Z 15002KT 16/11 A3016 RMK A01 T01610110  RH  072%=      5-min Rain = 0
KTH1 110808Z 14002KT 16/11 A3016 RMK A01 T01590110  RH  073%=      5-min Rain = 0
KTH1 110809Z 14002KT 16/11 A3016 RMK A01 T01580110  RH  073%=      5-min Rain = 0
KTH1 110810Z 14003KT 16/11 A3016 RMK A01 T01570110  RH  073%=      5-min Rain = 0
KTH1 110811Z 14003KT 16/11 A3016 RMK A01 T01560111  RH  074%=      5-min Rain = 0
KTH1 110812Z 14003KT 15/11 A3016 RMK A01 T01540111  RH  075%=      5-min Rain = 0
KTH1 110813Z 14004KT 15/11 A3016 RMK A01 T01530110  RH  076%=      5-min Rain = 0
KTH1 110814Z 13004KT 15/11 A3016 RMK A01 T01510110  RH  077%=      5-min Rain = 0
KTH1 110815Z 12004KT 15/11 A3016 RMK A01 T01490110  RH  077%=      5-min Rain = 0
KTH1 110816Z 12004KT 15/11 A3016 RMK A01 T01470110  RH  078%=      5-min Rain = 0
KTH1 110817Z 12004KT 15/11 A3016 RMK A01 T01460110  RH  079%=      5-min Rain = 0
KTH1 110818Z 12004KT 15/11 A3016 RMK A01 T01450109  RH  079%=      5-min Rain = 0
KTH1 110819Z 11003KT 14/11 A3016 RMK A01 T01440109  RH  079%=      5-min Rain = 0
KTH1 110820Z 12002KT 14/11 A3016 RMK A01 T01430109  RH  080%=      5-min Rain = 0
KTH1 110821Z 13002KT 14/11 A3016 RMK A01 T01430109  RH  080%=      5-min Rain = 0
KTH1 110822Z 12001KT 14/11 A3016 RMK A01 T01430110  RH  080%=      5-min Rain = 0
KTH1 110823Z 11000KT 14/11 A3016 RMK A01 T01430110  RH  080%=      5-min Rain = 0
KTH1 110824Z 12000KT 14/11 A3016 RMK A01 T01430110  RH  080%=      5-min Rain = 0
KTH1 110825Z 00000KT 14/11 A3016 RMK A01 T01420109  RH  080%=      5-min Rain = 0
KTH1 110826Z 00000KT 14/11 A3016 RMK A01 T01430111  RH  081%=      5-min Rain = 0
KTH1 110827Z 00000KT 14/11 A3016 RMK A01 T01430113  RH  082%=      5-min Rain = 0
KTH1 110828Z 00000KT 14/11 A3016 RMK A01 T01430112  RH  081%=      5-min Rain = 0
KTH1 110829Z 00000KT 14/11 A3016 RMK A01 T01430110  RH  080%=      5-min Rain = 0
KTH1 110830Z 00000KT 14/11 A3016 RMK A01 T01430111  RH  081%=      5-min Rain = 0
KTH1 110831Z 22000KT 14/11 A3016 RMK A01 T01430113  RH  082%=      5-min Rain = 0
KTH1 110832Z 22000KT 14/11 A3016 RMK A01 T01430113  RH  082%=      5-min Rain = 0
KTH1 110833Z 19000KT 14/11 A3016 RMK A01 T01430114  RH  082%=      5-min Rain = 0
KTH1 110834Z 19001KT 14/11 A3016 RMK A01 T01430114  RH  083%=      5-min Rain = 0
KTH1 110835Z 18001KT 14/11 A3016 RMK A01 T01430114  RH  083%=      5-min Rain = 0
KTH1 110836Z 18002KT 14/12 A3016 RMK A01 T01430115  RH  083%=      5-min Rain = 0
KTH1 110837Z 18002KT 14/12 A3016 RMK A01 T01430115  RH  083%=      5-min Rain = 0
KTH1 110838Z 20001KT 14/11 A3016 RMK A01 T01440111  RH  081%=      5-min Rain = 0
KTH1 110839Z 23002KT 15/11 A3016 RMK A01 T01460111  RH  080%=      5-min Rain = 0
KTH1 110840Z 23002KT 15/11 A3016 RMK A01 T01480111  RH  078%=      5-min Rain = 0
KTH1 110841Z 24003KT 15/11 A3016 RMK A01 T01500111  RH  077%=      5-min Rain = 0
KTH1 110842Z 24003KT 15/11 A3016 RMK A01 T01520112  RH  077%=      5-min Rain = 0
KTH1 110843Z 24003KT 15/12 A3016 RMK A01 T01530115  RH  078%=      5-min Rain = 0
KTH1 110844Z 24003KT 16/12 A3016 RMK A01 T01550121  RH  080%=      5-min Rain = 0
KTH1 110845Z 24003KT 16/13 A3016 RMK A01 T01560125  RH  082%=      5-min Rain = 0
KTH1 110846Z 24003KT 16/12 A3016 RMK A01 T01560123  RH  081%=      5-min Rain = 0
KTH1 110847Z 24003KT 16/12 A3016 RMK A01 T01560121  RH  080%=      5-min Rain = 0
KTH1 110848Z 24003KT 16/12 A3016 RMK A01 T01560118  RH  078%=      5-min Rain = 0
KTH1 110849Z 23002KT 16/12 A3016 RMK A01 T01560116  RH  077%=      5-min Rain = 0
KTH1 110850Z 22002KT 16/11 A3016 RMK A01 T01560114  RH  076%=      5-min Rain = 0
KTH1 110851Z 23002KT 16/11 A3016 RMK A01 T01560113  RH  076%=      5-min Rain = 0
KTH1 110852Z 23002KT 16/11 A3016 RMK A01 T01560114  RH  076%=      5-min Rain = 0
KTH1 110853Z 21002KT 16/11 A3016 RMK A01 T01560114  RH  076%=      5-min Rain = 0
KTH1 110854Z 19002KT 16/11 A3016 RMK A01 T01560113  RH  076%=      5-min Rain = 0
KTH1 110855Z 19001KT 16/11 A3016 RMK A01 T01560112  RH  075%=      5-min Rain = 0
KTH1 110856Z 19001KT 16/11 A3016 RMK A01 T01550111  RH  075%=      5-min Rain = 0
KTH1 110857Z 19001KT 16/11 A3016 RMK A01 T01550109  RH  074%=      5-min Rain = 0
KTH1 110858Z 19002KT 16/11 A3016 RMK A01 T01560109  RH  074%=      5-min Rain = 0
KTH1 110859Z 20001KT 16/11 A3016 RMK A01 T01550109  RH  074%=      5-min Rain = 0
KTH1 110900Z 21001KT 16/11 A3016 RMK A01 T01560108  RH  073%=      5-min Rain = 0
KTH1 110901Z 21001KT 16/11 A3016 RMK A01 T01560108  RH  073%=      5-min Rain = 0
KTH1 110902Z 21001KT 16/11 A3016 RMK A01 T01560109  RH  073%=      5-min Rain = 0
KTH1 110903Z 21001KT 16/11 A3016 RMK A01 T01570110  RH  074%=      5-min Rain = 0
KTH1 110904Z 21001KT 16/11 A3016 RMK A01 T01570111  RH  074%=      5-min Rain = 0
KTH1 110905Z 21001KT 16/11 A3016 RMK A01 T01580111  RH  073%=      5-min Rain = 0
KTH1 110906Z 20002KT 16/11 A3016 RMK A01 T01580110  RH  073%=      5-min Rain = 0
KTH1 110907Z 19002KT 16/11 A3016 RMK A01 T01580109  RH  073%=      5-min Rain = 0
KTH1 110908Z 19002KT 16/11 A3016 RMK A01 T01590109  RH  073%=      5-min Rain = 0
KTH1 110909Z 20001KT 16/11 A3016 RMK A01 T01590109  RH  072%=      5-min Rain = 0
KTH1 110910Z 21001KT 16/11 A3016 RMK A01 T01590109  RH  072%=      5-min Rain = 0
KTH1 110911Z 24001KT 16/11 A3016 RMK A01 T01600113  RH  074%=      5-min Rain = 0
KTH1 110912Z 25001KT 16/12 A3016 RMK A01 T01600116  RH  075%=      5-min Rain = 0
KTH1 110913Z 26002KT 16/12 A3016 RMK A01 T01600116  RH  075%=      5-min Rain = 0
KTH1 110914Z 25002KT 16/12 A3016 RMK A01 T01600119  RH  077%=      5-min Rain = 0
KTH1 110915Z 25002KT 16/12 A3016 RMK A01 T01590119  RH  077%=      5-min Rain = 0
KTH1 110916Z 25002KT 16/12 A3016 RMK A01 T01570116  RH  076%=      5-min Rain = 0
KTH1 110917Z 25003KT 16/12 A3016 RMK A01 T01560115  RH  076%=      5-min Rain = 0
KTH1 110918Z 25003KT 16/12 A3016 RMK A01 T01560116  RH  077%=      5-min Rain = 0
KTH1 110919Z 25003KT 16/12 A3016 RMK A01 T01550117  RH  078%=      5-min Rain = 0
KTH1 110920Z 25003KT 16/12 A3016 RMK A01 T01550117  RH  078%=      5-min Rain = 0
KTH1 110921Z 24003KT 15/12 A3016 RMK A01 T01540116  RH  078%=      5-min Rain = 0
KTH1 110922Z 24002KT 15/12 A3016 RMK A01 T01540116  RH  078%=      5-min Rain = 0
KTH1 110923Z 24002KT 15/12 A3016 RMK A01 T01540115  RH  078%=      5-min Rain = 0
KTH1 110924Z 24002KT 15/11 A3016 RMK A01 T01540114  RH  077%=      5-min Rain = 0
KTH1 110925Z 24002KT 15/11 A3016 RMK A01 T01530114  RH  077%=      5-min Rain = 0
KTH1 110926Z 24002KT 15/11 A3016 RMK A01 T01540114  RH  077%=      5-min Rain = 0
KTH1 110927Z 24002KT 15/12 A3016 RMK A01 T01530115  RH  078%=      5-min Rain = 0
KTH1 110928Z 24002KT 15/12 A3016 RMK A01 T01540116  RH  078%=      5-min Rain = 0
KTH1 110929Z 24002KT 15/12 A3016 RMK A01 T01540115  RH  078%=      5-min Rain = 0
KTH1 110930Z 24002KT 15/11 A3016 RMK A01 T01540114  RH  077%=      5-min Rain = 0
KTH1 110931Z 24002KT 15/11 A3016 RMK A01 T01540113  RH  077%=      5-min Rain = 0
KTH1 110932Z 23002KT 15/11 A3016 RMK A01 T01540113  RH  077%=      5-min Rain = 0
KTH1 110933Z 22003KT 15/11 A3016 RMK A01 T01530111  RH  076%=      5-min Rain = 0
KTH1 110934Z 22003KT 15/11 A3016 RMK A01 T01530109  RH  075%=      5-min Rain = 0
KTH1 110935Z 22003KT 15/11 A3016 RMK A01 T01520108  RH  075%=      5-min Rain = 0
KTH1 110936Z 22003KT 15/11 A3016 RMK A01 T01520108  RH  075%=      5-min Rain = 0
KTH1 110937Z 23003KT 15/11 A3016 RMK A01 T01510107  RH  075%=      5-min Rain = 0
KTH1 110938Z 24003KT 15/11 A3016 RMK A01 T01510107  RH  075%=      5-min Rain = 0
KTH1 110939Z 24003KT 15/11 A3016 RMK A01 T01510108  RH  075%=      5-min Rain = 0
KTH1 110940Z 24003KT 15/11 A3016 RMK A01 T01510109  RH  076%=      5-min Rain = 0
KTH1 110941Z 24003KT 15/11 A3016 RMK A01 T01510110  RH  076%=      5-min Rain = 0
KTH1 110942Z 25002KT 15/11 A3016 RMK A01 T01510110  RH  077%=      5-min Rain = 0
KTH1 110943Z 25002KT 15/11 A3016 RMK A01 T01510111  RH  077%=      5-min Rain = 0
KTH1 110944Z 25002KT 15/11 A3016 RMK A01 T01510112  RH  078%=      5-min Rain = 0
KTH1 110945Z 25002KT 15/11 A3016 RMK A01 T01510113  RH  078%=      5-min Rain = 0
KTH1 110946Z 26002KT 15/11 A3016 RMK A01 T01510113  RH  078%=      5-min Rain = 0
KTH1 110947Z 25002KT 15/11 A3016 RMK A01 T01510114  RH  078%=      5-min Rain = 0
KTH1 110948Z 25002KT 15/12 A3016 RMK A01 T01510116  RH  080%=      5-min Rain = 0
KTH1 110949Z 26002KT 15/12 A3016 RMK A01 T01510117  RH  080%=      5-min Rain = 0
KTH1 110950Z 25002KT 15/12 A3016 RMK A01 T01510118  RH  081%=      5-min Rain = 0
KTH1 110951Z 25002KT 15/12 A3016 RMK A01 T01520120  RH  081%=      5-min Rain = 0
KTH1 110952Z 26002KT 15/12 A3016 RMK A01 T01520120  RH  081%=      5-min Rain = 0
KTH1 110953Z 25002KT 15/12 A3016 RMK A01 T01530121  RH  081%=      5-min Rain = 0
KTH1 110954Z 25002KT 15/12 A3016 RMK A01 T01530121  RH  081%=      5-min Rain = 0
KTH1 110955Z 26002KT 15/12 A3016 RMK A01 T01530121  RH  081%=      5-min Rain = 0
KTH1 110956Z 26002KT 15/12 A3016 RMK A01 T01530121  RH  081%=      5-min Rain = 0
KTH1 110957Z 26002KT 15/12 A3016 RMK A01 T01530121  RH  081%=      5-min Rain = 0
KTH1 110958Z 26002KT 15/12 A3016 RMK A01 T01530122  RH  082%=      5-min Rain = 0
KTH1 110959Z 26002KT 15/12 A3016 RMK A01 T01530121  RH  081%=      5-min Rain = 0
KTH1 111000Z 27002KT 15/12 A3016 RMK A01 T01530122  RH  082%=      5-min Rain = 0
KTH1 111001Z 26002KT 15/12 A3016 RMK A01 T01530124  RH  083%=      5-min Rain = 0
KTH1 111002Z 26001KT 15/12 A3016 RMK A01 T01530124  RH  083%=      5-min Rain = 0
KTH1 111003Z 26002KT 15/13 A3016 RMK A01 T01530125  RH  083%=      5-min Rain = 0
KTH1 111004Z 26002KT 15/13 A3016 RMK A01 T01530126  RH  084%=      5-min Rain = 0
KTH1 111005Z 26002KT 15/13 A3016 RMK A01 T01530126  RH  084%=      5-min Rain = 0
KTH1 111006Z 25002KT 15/13 A3016 RMK A01 T01520125  RH  083%=      5-min Rain = 0
KTH1 111007Z 25002KT 15/12 A3016 RMK A01 T01520124  RH  083%=      5-min Rain = 0
KTH1 111008Z 25002KT 15/12 A3016 RMK A01 T01520124  RH  083%=      5-min Rain = 0
KTH1 111009Z 26002KT 15/12 A3016 RMK A01 T01520123  RH  083%=      5-min Rain = 0
KTH1 111010Z 26002KT 15/12 A3016 RMK A01 T01520123  RH  083%=      5-min Rain = 0
KTH1 111011Z 26002KT 15/12 A3016 RMK A01 T01510122  RH  082%=      5-min Rain = 0
KTH1 111012Z 26002KT 15/12 A3016 RMK A01 T01510122  RH  082%=      5-min Rain = 0
KTH1 111013Z 27002KT 15/12 A3016 RMK A01 T01510123  RH  083%=      5-min Rain = 0
KTH1 111014Z 26002KT 15/12 A3016 RMK A01 T01510124  RH  084%=      5-min Rain = 0
KTH1 111015Z 26002KT 15/12 A3016 RMK A01 T01510124  RH  084%=      5-min Rain = 0
KTH1 111016Z 26002KT 15/12 A3016 RMK A01 T01510124  RH  084%=      5-min Rain = 0
KTH1 111017Z 27002KT 15/13 A3016 RMK A01 T01520125  RH  084%=      5-min Rain = 0
KTH1 111018Z 26002KT 15/13 A3016 RMK A01 T01520126  RH  084%=      5-min Rain = 0
KTH1 111019Z 26001KT 15/13 A3016 RMK A01 T01530127  RH  084%=      5-min Rain = 0
KTH1 111020Z 27002KT 15/13 A3016 RMK A01 T01530126  RH  084%=      5-min Rain = 0
KTH1 111021Z 27001KT 15/13 A3016 RMK A01 T01530127  RH  084%=      5-min Rain = 0
KTH1 111022Z 27001KT 15/13 A3016 RMK A01 T01530127  RH  084%=      5-min Rain = 0
KTH1 111023Z 28002KT 15/13 A3016 RMK A01 T01530127  RH  084%=      5-min Rain = 0
KTH1 111024Z 27001KT 15/13 A3016 RMK A01 T01530127  RH  085%=      5-min Rain = 0
KTH1 111025Z 27002KT 15/13 A3016 RMK A01 T01530127  RH  085%=      5-min Rain = 0
KTH1 111026Z 27002KT 15/13 A3016 RMK A01 T01530127  RH  084%=      5-min Rain = 0
KTH1 111027Z 27002KT 15/13 A3016 RMK A01 T01530127  RH  084%=      5-min Rain = 0
KTH1 111028Z 28002KT 15/13 A3016 RMK A01 T01530126  RH  084%=      5-min Rain = 0
KTH1 111029Z 27002KT 15/13 A3016 RMK A01 T01530126  RH  084%=      5-min Rain = 0
KTH1 111030Z 27002KT 15/13 A3016 RMK A01 T01530125  RH  083%=      5-min Rain = 0
KTH1 111031Z 27002KT 15/13 A3016 RMK A01 T01530125  RH  083%=      5-min Rain = 0
KTH1 111032Z 27002KT 15/12 A3016 RMK A01 T01530124  RH  083%=      5-min Rain = 0
KTH1 111033Z 26002KT 15/12 A3016 RMK A01 T01530124  RH  083%=      5-min Rain = 0
KTH1 111034Z 26002KT 15/12 A3016 RMK A01 T01530124  RH  083%=      5-min Rain = 0
KTH1 111035Z 26002KT 15/13 A3016 RMK A01 T01530125  RH  083%=      5-min Rain = 0
KTH1 111036Z 27002KT 15/12 A3016 RMK A01 T01530124  RH  083%=      5-min Rain = 0
KTH1 111037Z 27002KT 15/12 A3016 RMK A01 T01520123  RH  083%=      5-min Rain = 0
KTH1 111038Z 26002KT 15/12 A3016 RMK A01 T01520123  RH  083%=      5-min Rain = 0
KTH1 111039Z 26002KT 15/12 A3016 RMK A01 T01520123  RH  083%=      5-min Rain = 0
KTH1 111040Z 26002KT 15/12 A3016 RMK A01 T01520123  RH  083%=      5-min Rain = 0
KTH1 111041Z 26002KT 15/12 A3016 RMK A01 T01520123  RH  083%=      5-min Rain = 0
KTH1 111042Z 27002KT 15/12 A3016 RMK A01 T01520124  RH  083%=      5-min Rain = 0
KTH1 111043Z 27002KT 15/12 A3016 RMK A01 T01520124  RH  084%=      5-min Rain = 0
KTH1 111044Z 27002KT 15/13 A3016 RMK A01 T01520125  RH  084%=      5-min Rain = 0
KTH1 111045Z 27003KT 15/13 A3016 RMK A01 T01520125  RH  084%=      5-min Rain = 0
KTH1 111046Z 26003KT 15/13 A3016 RMK A01 T01520125  RH  084%=      5-min Rain = 0
KTH1 111047Z 26003KT 15/13 A3017 RMK A01 T01520126  RH  084%=      5-min Rain = 0
KTH1 111048Z 25003KT 15/13 A3017 RMK A01 T01530126  RH  084%=      5-min Rain = 0
KTH1 111049Z 25003KT 15/13 A3017 RMK A01 T01530127  RH  085%=      5-min Rain = 0
KTH1 111050Z 25003KT 15/13 A3017 RMK A01 T01520126  RH  084%=      5-min Rain = 0
KTH1 111051Z 24002KT 15/12 A3017 RMK A01 T01510124  RH  084%=      5-min Rain = 0
KTH1 111052Z 25003KT 15/12 A3017 RMK A01 T01510123  RH  084%=      5-min Rain = 0
KTH1 111053Z 25003KT 15/12 A3017 RMK A01 T01500122  RH  083%=      5-min Rain = 0
KTH1 111054Z 26003KT 15/12 A3017 RMK A01 T01500122  RH  083%=      5-min Rain = 0
KTH1 111055Z 25003KT 15/12 A3017 RMK A01 T01490122  RH  083%=      5-min Rain = 0
KTH1 111056Z 26003KT 15/12 A3017 RMK A01 T01490122  RH  084%=      5-min Rain = 0
KTH1 111057Z 25003KT 15/12 A3017 RMK A01 T01490120  RH  083%=      5-min Rain = 0
KTH1 111058Z 26003KT 15/12 A3017 RMK A01 T01490120  RH  083%=      5-min Rain = 0
KTH1 111059Z 27002KT 15/12 A3017 RMK A01 T01490121  RH  083%=      5-min Rain = 0
KTH1 111100Z 26002KT 15/12 A3017 RMK A01 T01490121  RH  084%=      5-min Rain = 0
KTH1 111101Z 26002KT 15/12 A3017 RMK A01 T01480121  RH  084%=      5-min Rain = 0
KTH1 111102Z 26002KT 15/12 A3017 RMK A01 T01490122  RH  084%=      5-min Rain = 0
KTH1 111103Z 26003KT 15/12 A3017 RMK A01 T01480122  RH  084%=      5-min Rain = 0
KTH1 111104Z 26002KT 15/12 A3017 RMK A01 T01490124  RH  085%=      5-min Rain = 0
KTH1 111105Z 26003KT 15/12 A3017 RMK A01 T01490124  RH  085%=      5-min Rain = 0
KTH1 111106Z 26003KT 15/12 A3017 RMK A01 T01490124  RH  085%=      5-min Rain = 0
KTH1 111107Z 26003KT 15/13 A3017 RMK A01 T01490125  RH  085%=      5-min Rain = 0
KTH1 111108Z 26002KT 15/13 A3017 RMK A01 T01490125  RH  085%=      5-min Rain = 0
KTH1 111109Z 26002KT 15/13 A3017 RMK A01 T01490125  RH  085%=      5-min Rain = 0
KTH1 111110Z 26002KT 15/13 A3017 RMK A01 T01490125  RH  085%=      5-min Rain = 0
KTH1 111111Z 26002KT 15/12 A3017 RMK A01 T01490124  RH  085%=      5-min Rain = 0
KTH1 111112Z 27002KT 15/12 A3017 RMK A01 T01490124  RH  085%=      5-min Rain = 0
KTH1 111113Z 27002KT 15/12 A3017 RMK A01 T01480124  RH  085%=      5-min Rain = 0
KTH1 111114Z 27002KT 15/13 A3017 RMK A01 T01480125  RH  086%=      5-min Rain = 0
KTH1 111115Z 27001KT 15/13 A3017 RMK A01 T01480126  RH  086%=      5-min Rain = 0
KTH1 111116Z 27002KT 15/13 A3017 RMK A01 T01480125  RH  086%=      5-min Rain = 0
KTH1 111117Z 26002KT 15/13 A3017 RMK A01 T01490125  RH  086%=      5-min Rain = 0
KTH1 111118Z 27002KT 15/13 A3017 RMK A01 T01490125  RH  086%=      5-min Rain = 0
KTH1 111119Z 27002KT 15/13 A3017 RMK A01 T01490125  RH  086%=      5-min Rain = 0
KTH1 111120Z 28002KT 15/13 A3017 RMK A01 T01490126  RH  086%=      5-min Rain = 0
KTH1 111121Z 27001KT 15/13 A3017 RMK A01 T01480125  RH  086%=      5-min Rain = 0
KTH1 111122Z 27001KT 15/13 A3017 RMK A01 T01480125  RH  086%=      5-min Rain = 0
KTH1 111123Z 28002KT 15/13 A3017 RMK A01 T01480126  RH  087%=      5-min Rain = 0
KTH1 111124Z 27002KT 15/13 A3017 RMK A01 T01480127  RH  087%=      5-min Rain = 0
KTH1 111125Z 27002KT 15/13 A3017 RMK A01 T01480128  RH  088%=      5-min Rain = 0
KTH1 111126Z 27002KT 15/13 A3017 RMK A01 T01480128  RH  088%=      5-min Rain = 0
KTH1 111127Z 27001KT 15/13 A3017 RMK A01 T01480129  RH  088%=      5-min Rain = 0
KTH1 111128Z 28001KT 15/13 A3017 RMK A01 T01480128  RH  088%=      5-min Rain = 0
KTH1 111129Z 28002KT 15/13 A3017 RMK A01 T01480128  RH  088%=      5-min Rain = 0
KTH1 111130Z 28002KT 15/13 A3017 RMK A01 T01480129  RH  088%=      5-min Rain = 0
KTH1 111131Z 28002KT 15/13 A3017 RMK A01 T01490130  RH  088%=      5-min Rain = 0
KTH1 111132Z 27002KT 15/13 A3017 RMK A01 T01490130  RH  088%=      5-min Rain = 0
KTH1 111133Z 28002KT 15/13 A3017 RMK A01 T01490130  RH  088%=      5-min Rain = 0
KTH1 111134Z 28002KT 15/13 A3017 RMK A01 T01490130  RH  088%=      5-min Rain = 0
KTH1 111135Z 27002KT 15/13 A3017 RMK A01 T01490130  RH  088%=      5-min Rain = 0
KTH1 111136Z 27002KT 15/13 A3017 RMK A01 T01490131  RH  089%=      5-min Rain = 0
KTH1 111137Z 26002KT 15/13 A3017 RMK A01 T01500131  RH  089%=      5-min Rain = 0
KTH1 111138Z 27002KT 15/13 A3017 RMK A01 T01500132  RH  089%=      5-min Rain = 0
KTH1 111139Z 27002KT 15/13 A3017 RMK A01 T01500132  RH  089%=      5-min Rain = 0
KTH1 111140Z 27002KT 15/13 A3017 RMK A01 T01500132  RH  089%=      5-min Rain = 0
KTH1 111141Z 27003KT 15/13 A3017 RMK A01 T01500132  RH  089%=      5-min Rain = 0
KTH1 111142Z 26003KT 15/13 A3017 RMK A01 T01500132  RH  089%=      5-min Rain = 0
KTH1 111143Z 26002KT 15/13 A3017 RMK A01 T01500131  RH  089%=      5-min Rain = 0
KTH1 111144Z 27003KT 15/13 A3017 RMK A01 T01500131  RH  088%=      5-min Rain = 0
KTH1 111145Z 26002KT 15/13 A3017 RMK A01 T01490131  RH  089%=      5-min Rain = 0
KTH1 111146Z 27002KT 15/13 A3017 RMK A01 T01490131  RH  089%=      5-min Rain = 0
KTH1 111147Z 27002KT 15/13 A3017 RMK A01 T01490131  RH  089%=      5-min Rain = 0
KTH1 111148Z 26002KT 15/13 A3017 RMK A01 T01490131  RH  089%=      5-min Rain = 0
KTH1 111149Z 26003KT 15/13 A3017 RMK A01 T01490131  RH  089%=      5-min Rain = 0
KTH1 111150Z 26003KT 15/13 A3017 RMK A01 T01490131  RH  089%=      5-min Rain = 0
KTH1 111151Z 27003KT 15/13 A3017 RMK A01 T01490131  RH  089%=      5-min Rain = 0
KTH1 111152Z 26003KT 15/13 A3017 RMK A01 T01490131  RH  089%=      5-min Rain = 0
KTH1 111153Z 26003KT 15/13 A3017 RMK A01 T01490131  RH  089%=      5-min Rain = 0
KTH1 111154Z 26003KT 15/13 A3017 RMK A01 T01490132  RH  089%=      5-min Rain = 0
KTH1 111155Z 26002KT 15/13 A3017 RMK A01 T01490132  RH  089%=      5-min Rain = 0
KTH1 111156Z 27002KT 15/13 A3017 RMK A01 T01500132  RH  089%=      5-min Rain = 0
KTH1 111157Z 27002KT 15/13 A3017 RMK A01 T01490131  RH  089%=      5-min Rain = 0
KTH1 111158Z 27002KT 15/13 A3017 RMK A01 T01490130  RH  088%=      5-min Rain = 0
KTH1 111159Z 27002KT 15/13 A3017 RMK A01 T01490130  RH  088%=      5-min Rain = 0
KTH1 111200Z 27002KT 15/13 A3017 RMK A01 T01500130  RH  088%=      5-min Rain = 0
KTH1 111201Z 27001KT 15/13 A3017 RMK A01 T01490130  RH  088%=      5-min Rain = 0
KTH1 111202Z 27001KT 15/13 A3017 RMK A01 T01490128  RH  087%=      5-min Rain = 0
KTH1 111203Z 28002KT 15/13 A3017 RMK A01 T01480127  RH  087%=      5-min Rain = 0
KTH1 111204Z 28002KT 15/13 A3017 RMK A01 T01480127  RH  087%=      5-min Rain = 0
KTH1 111205Z 27002KT 15/13 A3017 RMK A01 T01470128  RH  088%=      5-min Rain = 0
KTH1 111206Z 27002KT 15/13 A3017 RMK A01 T01480128  RH  088%=      5-min Rain = 0
KTH1 111207Z 26002KT 15/13 A3017 RMK A01 T01480128  RH  088%=      5-min Rain = 0
KTH1 111208Z 27002KT 15/13 A3017 RMK A01 T01480129  RH  088%=      5-min Rain = 0
KTH1 111209Z 27002KT 15/13 A3017 RMK A01 T01480129  RH  088%=      5-min Rain = 0
KTH1 111210Z 26002KT 15/13 A3017 RMK A01 T01480129  RH  088%=      5-min Rain = 0
KTH1 111211Z 26003KT 15/13 A3017 RMK A01 T01490129  RH  088%=      5-min Rain = 0
KTH1 111212Z 27002KT 15/13 A3017 RMK A01 T01490130  RH  088%=      5-min Rain = 0
KTH1 111213Z 26003KT 15/13 A3017 RMK A01 T01490131  RH  089%=      5-min Rain = 0
KTH1 111214Z 27002KT 15/13 A3017 RMK A01 T01500131  RH  089%=      5-min Rain = 0
KTH1 111215Z 27003KT 15/13 A3017 RMK A01 T01500131  RH  089%=      5-min Rain = 0
KTH1 111216Z 26003KT 15/13 A3017 RMK A01 T01500131  RH  089%=      5-min Rain = 0
KTH1 111217Z 26002KT 15/13 A3017 RMK A01 T01490132  RH  089%=      5-min Rain = 0
KTH1 111218Z 27003KT 15/13 A3017 RMK A01 T01490132  RH  089%=      5-min Rain = 0
KTH1 111219Z 26003KT 15/13 A3017 RMK A01 T01500132  RH  089%=      5-min Rain = 0
KTH1 111220Z 26003KT 15/13 A3017 RMK A01 T01500133  RH  089%=      5-min Rain = 0
KTH1 111221Z 26002KT 15/13 A3017 RMK A01 T01500132  RH  089%=      5-min Rain = 0
KTH1 111222Z 26002KT 15/13 A3017 RMK A01 T01500133  RH  089%=      5-min Rain = 0
KTH1 111223Z 26003KT 15/13 A3017 RMK A01 T01500134  RH  090%=      5-min Rain = 0
KTH1 111224Z 26002KT 15/13 A3017 RMK A01 T01500134  RH  090%=      5-min Rain = 0
KTH1 111225Z 26002KT 15/13 A3017 RMK A01 T01500134  RH  090%=      5-min Rain = 0
KTH1 111226Z 26002KT 15/13 A3017 RMK A01 T01500134  RH  090%=      5-min Rain = 0
KTH1 111227Z 25002KT 15/13 A3017 RMK A01 T01500133  RH  090%=      5-min Rain = 0
KTH1 111228Z 25002KT 15/13 A3017 RMK A01 T01490132  RH  090%=      5-min Rain = 0
KTH1 111229Z 26002KT 15/13 A3017 RMK A01 T01490131  RH  089%=      5-min Rain = 0
KTH1 111230Z 27002KT 15/13 A3017 RMK A01 T01480131  RH  089%=      5-min Rain = 0
KTH1 111231Z 27002KT 15/13 A3017 RMK A01 T01480130  RH  089%=      5-min Rain = 0
KTH1 111232Z 27003KT 15/13 A3017 RMK A01 T01480130  RH  089%=      5-min Rain = 0
KTH1 111233Z 27003KT 15/13 A3017 RMK A01 T01480129  RH  088%=      5-min Rain = 0
KTH1 111234Z 27003KT 15/13 A3018 RMK A01 T01480127  RH  087%=      5-min Rain = 0
KTH1 111235Z 27003KT 15/13 A3018 RMK A01 T01480125  RH  086%=      5-min Rain = 0
KTH1 111236Z 26003KT 15/12 A3018 RMK A01 T01480124  RH  085%=      5-min Rain = 0
KTH1 111237Z 26003KT 15/12 A3018 RMK A01 T01480122  RH  085%=      5-min Rain = 0
KTH1 111238Z 26003KT 15/12 A3018 RMK A01 T01480123  RH  085%=      5-min Rain = 0
KTH1 111239Z 27003KT 15/13 A3017 RMK A01 T01480125  RH  086%=      5-min Rain = 0
KTH1 111240Z 26003KT 15/13 A3017 RMK A01 T01480125  RH  086%=      5-min Rain = 0
KTH1 111241Z 26003KT 15/13 A3017 RMK A01 T01480125  RH  086%=      5-min Rain = 0
KTH1 111242Z 27003KT 15/13 A3017 RMK A01 T01490126  RH  086%=      5-min Rain = 0
KTH1 111243Z 26003KT 15/13 A3018 RMK A01 T01480126  RH  086%=      5-min Rain = 0
KTH1 111244Z 26003KT 15/13 A3018 RMK A01 T01490127  RH  087%=      5-min Rain = 0
KTH1 111245Z 26002KT 15/13 A3018 RMK A01 T01490129  RH  088%=      5-min Rain = 0
KTH1 111246Z 26002KT 15/13 A3018 RMK A01 T01490129  RH  088%=      5-min Rain = 0
KTH1 111247Z 26002KT 15/13 A3018 RMK A01 T01490129  RH  088%=      5-min Rain = 0
KTH1 111248Z 26002KT 15/13 A3018 RMK A01 T01500129  RH  088%=      5-min Rain = 0
KTH1 111249Z 26003KT 15/13 A3018 RMK A01 T01500129  RH  087%=      5-min Rain = 0
KTH1 111250Z 26003KT 15/13 A3018 RMK A01 T01500129  RH  087%=      5-min Rain = 0
KTH1 111251Z 26003KT 15/13 A3018 RMK A01 T01510131  RH  088%=      5-min Rain = 0
KTH1 111252Z 27003KT 15/13 A3018 RMK A01 T01510131  RH  088%=      5-min Rain = 0
KTH1 111253Z 26003KT 15/13 A3018 RMK A01 T01510130  RH  087%=      5-min Rain = 0
KTH1 111254Z 27002KT 15/13 A3018 RMK A01 T01510130  RH  087%=      5-min Rain = 0
KTH1 111255Z 26002KT 15/13 A3018 RMK A01 T01510129  RH  087%=      5-min Rain = 0
KTH1 111256Z 27002KT 15/13 A3018 RMK A01 T01510129  RH  086%=      5-min Rain = 0
KTH1 111257Z 27002KT 15/13 A3018 RMK A01 T01520129  RH  086%=      5-min Rain = 0
KTH1 111258Z 27002KT 15/13 A3018 RMK A01 T01520129  RH  086%=      5-min Rain = 0
KTH1 111259Z 27002KT 15/13 A3018 RMK A01 T01530129  RH  086%=      5-min Rain = 0
KTH1 111300Z 26002KT 15/13 A3018 RMK A01 T01530129  RH  086%=      5-min Rain = 0
KTH1 111301Z 27002KT 15/13 A3018 RMK A01 T01530127  RH  084%=      5-min Rain = 0
KTH1 111302Z 27002KT 15/13 A3018 RMK A01 T01540127  RH  084%=      5-min Rain = 0
KTH1 111303Z 27002KT 15/13 A3018 RMK A01 T01540126  RH  083%=      5-min Rain = 0
KTH1 111304Z 27002KT 16/13 A3018 RMK A01 T01550129  RH  085%=      5-min Rain = 0
KTH1 111305Z 27002KT 16/13 A3018 RMK A01 T01550128  RH  084%=      5-min Rain = 0
KTH1 111306Z 27002KT 16/13 A3018 RMK A01 T01560128  RH  083%=      5-min Rain = 0
KTH1 111307Z 27002KT 16/13 A3018 RMK A01 T01560129  RH  084%=      5-min Rain = 0
KTH1 111308Z 27002KT 16/13 A3018 RMK A01 T01570130  RH  084%=      5-min Rain = 0
KTH1 111309Z 28002KT 16/13 A3018 RMK A01 T01580131  RH  084%=      5-min Rain = 0
KTH1 111310Z 28002KT 16/13 A3018 RMK A01 T01580132  RH  084%=      5-min Rain = 0
KTH1 111311Z 28002KT 16/13 A3018 RMK A01 T01580131  RH  083%=      5-min Rain = 0
KTH1 111312Z 27002KT 16/13 A3018 RMK A01 T01590130  RH  083%=      5-min Rain = 0
KTH1 111313Z 27002KT 16/13 A3018 RMK A01 T01600130  RH  082%=      5-min Rain = 0
KTH1 111314Z 26002KT 16/13 A3018 RMK A01 T01600130  RH  082%=      5-min Rain = 0
KTH1 111315Z 26002KT 16/13 A3018 RMK A01 T01600130  RH  082%=      5-min Rain = 0
KTH1 111316Z 26002KT 16/13 A3018 RMK A01 T01610131  RH  083%=      5-min Rain = 0
KTH1 111317Z 26003KT 16/13 A3018 RMK A01 T01610130  RH  082%=      5-min Rain = 0
KTH1 111318Z 27002KT 16/13 A3018 RMK A01 T01610131  RH  082%=      5-min Rain = 0
KTH1 111319Z 27002KT 16/13 A3018 RMK A01 T01620132  RH  082%=      5-min Rain = 0
KTH1 111320Z 27002KT 16/13 A3018 RMK A01 T01620132  RH  082%=      5-min Rain = 0
KTH1 111321Z 27002KT 16/13 A3018 RMK A01 T01630132  RH  082%=      5-min Rain = 0
KTH1 111322Z 26002KT 16/13 A3018 RMK A01 T01630132  RH  081%=      5-min Rain = 0
KTH1 111323Z 27002KT 16/13 A3018 RMK A01 T01640130  RH  080%=      5-min Rain = 0
KTH1 111324Z 27002KT 16/13 A3018 RMK A01 T01640133  RH  082%=      5-min Rain = 0
KTH1 111325Z 28001KT 17/13 A3018 RMK A01 T01650134  RH  082%=      5-min Rain = 0
KTH1 111326Z 27002KT 17/14 A3019 RMK A01 T01660135  RH  082%=      5-min Rain = 0
KTH1 111327Z 28002KT 17/14 A3019 RMK A01 T01660136  RH  082%=      5-min Rain = 0
KTH1 111328Z 27001KT 17/14 A3019 RMK A01 T01670138  RH  083%=      5-min Rain = 0
KTH1 111329Z 26001KT 17/14 A3019 RMK A01 T01680137  RH  082%=      5-min Rain = 0
KTH1 111330Z 27002KT 17/14 A3019 RMK A01 T01680137  RH  082%=      5-min Rain = 0
KTH1 111331Z 27001KT 17/14 A3019 RMK A01 T01690138  RH  082%=      5-min Rain = 0
KTH1 111332Z 26001KT 17/14 A3019 RMK A01 T01690138  RH  082%=      5-min Rain = 0
KTH1 111333Z 27001KT 17/14 A3019 RMK A01 T01700137  RH  081%=      5-min Rain = 0
KTH1 111334Z 26001KT 17/14 A3019 RMK A01 T01710137  RH  080%=      5-min Rain = 0
KTH1 111335Z 25001KT 17/14 A3019 RMK A01 T01710136  RH  080%=      5-min Rain = 0
KTH1 111336Z 26001KT 17/14 A3019 RMK A01 T01720136  RH  080%=      5-min Rain = 0
KTH1 111337Z 28001KT 17/14 A3019 RMK A01 T01720137  RH  080%=      5-min Rain = 0
KTH1 111338Z 26001KT 17/14 A3019 RMK A01 T01730139  RH  080%=      5-min Rain = 0
KTH1 111339Z 25001KT 17/14 A3019 RMK A01 T01740138  RH  079%=      5-min Rain = 0
KTH1 111340Z 27001KT 17/14 A3019 RMK A01 T01740136  RH  078%=      5-min Rain = 0
KTH1 111341Z 27001KT 18/14 A3019 RMK A01 T01750138  RH  079%=      5-min Rain = 0
KTH1 111342Z 27001KT 18/14 A3019 RMK A01 T01760138  RH  078%=      5-min Rain = 0
KTH1 111343Z 24001KT 18/14 A3019 RMK A01 T01770137  RH  078%=      5-min Rain = 0
KTH1 111344Z 26001KT 18/14 A3019 RMK A01 T01780138  RH  077%=      5-min Rain = 0
KTH1 111345Z 25002KT 18/14 A3019 RMK A01 T01780137  RH  077%=      5-min Rain = 0
KTH1 111346Z 27001KT 18/14 A3019 RMK A01 T01790136  RH  076%=      5-min Rain = 0
KTH1 111347Z 25002KT 18/14 A3019 RMK A01 T01790137  RH  076%=      5-min Rain = 0
KTH1 111348Z 25002KT 18/14 A3019 RMK A01 T01800136  RH  075%=      5-min Rain = 0
KTH1 111349Z 25002KT 18/14 A3019 RMK A01 T01810135  RH  074%=      5-min Rain = 0
KTH1 111350Z 25002KT 18/13 A3019 RMK A01 T01820134  RH  074%=      5-min Rain = 0
KTH1 111351Z 25002KT 18/14 A3019 RMK A01 T01820136  RH  074%=      5-min Rain = 0
KTH1 111352Z 26002KT 18/14 A3019 RMK A01 T01830137  RH  074%=      5-min Rain = 0
KTH1 111353Z 23002KT 18/14 A3019 RMK A01 T01840138  RH  074%=      5-min Rain = 0
KTH1 111354Z 24002KT 19/13 A3019 RMK A01 T01850133  RH  072%=      5-min Rain = 0
KTH1 111355Z 25001KT 19/13 A3019 RMK A01 T01860132  RH  071%=      5-min Rain = 0
KTH1 111356Z 23001KT 19/14 A3019 RMK A01 T01870135  RH  072%=      5-min Rain = 0
KTH1 111357Z 23001KT 19/14 A3019 RMK A01 T01880137  RH  072%=      5-min Rain = 0
KTH1 111358Z 24001KT 19/14 A3019 RMK A01 T01890137  RH  072%=      5-min Rain = 0
KTH1 111359Z 24002KT 19/14 A3019 RMK A01 T01900135  RH  070%=      5-min Rain = 0
KTH1 111400Z 24002KT 19/14 A3019 RMK A01 T01910136  RH  070%=      5-min Rain = 0
KTH1 111401Z 25001KT 19/14 A3019 RMK A01 T01920139  RH  071%=      5-min Rain = 0
KTH1 111402Z 25002KT 19/14 A3019 RMK A01 T01930135  RH  069%=      5-min Rain = 0
KTH1 111403Z 26002KT 19/13 A3019 RMK A01 T01940134  RH  069%=      5-min Rain = 0
KTH1 111404Z 25002KT 19/14 A3019 RMK A01 T01940135  RH  069%=      5-min Rain = 0
KTH1 111405Z 26001KT 20/14 A3019 RMK A01 T01950135  RH  069%=      5-min Rain = 0
KTH1 111406Z 26002KT 20/13 A3019 RMK A01 T01950133  RH  067%=      5-min Rain = 0
KTH1 111407Z 26001KT 20/14 A3019 RMK A01 T01960136  RH  068%=      5-min Rain = 0
KTH1 111408Z 26001KT 20/14 A3019 RMK A01 T01960138  RH  069%=      5-min Rain = 0
KTH1 111409Z 26001KT 20/14 A3019 RMK A01 T01970138  RH  068%=      5-min Rain = 0
KTH1 111410Z 27001KT 20/14 A3019 RMK A01 T01980135  RH  067%=      5-min Rain = 0
KTH1 111411Z 28001KT 20/14 A3019 RMK A01 T01980136  RH  067%=      5-min Rain = 0
KTH1 111412Z 28001KT 20/14 A3019 RMK A01 T01980136  RH  067%=      5-min Rain = 0
KTH1 111413Z 28001KT 20/14 A3019 RMK A01 T01990139  RH  068%=      5-min Rain = 0
KTH1 111414Z 26001KT 20/14 A3019 RMK A01 T02000141  RH  069%=      5-min Rain = 0
KTH1 111415Z 25000KT 20/14 A302 RMK A01 T02010137  RH  067%=      5-min Rain = 0
KTH1 111416Z 29000KT 20/14 A302 RMK A01 T02020138  RH  067%=      5-min Rain = 0
KTH1 111417Z 28001KT 20/14 A302 RMK A01 T02030141  RH  067%=      5-min Rain = 0
KTH1 111418Z 28001KT 20/14 A3019 RMK A01 T02040140  RH  067%=      5-min Rain = 0
KTH1 111419Z 23000KT 21/14 A302 RMK A01 T02050139  RH  066%=      5-min Rain = 0
KTH1 111420Z 25001KT 21/14 A302 RMK A01 T02050140  RH  066%=      5-min Rain = 0
KTH1 111421Z 24000KT 21/14 A302 RMK A01 T02060141  RH  066%=      5-min Rain = 0
KTH1 111422Z 27000KT 21/14 A302 RMK A01 T02080144  RH  067%=      5-min Rain = 0
KTH1 111423Z 24001KT 21/14 A302 RMK A01 T02090144  RH  066%=      5-min Rain = 0
KTH1 111424Z 23001KT 21/14 A302 RMK A01 T02110141  RH  064%=      5-min Rain = 0
KTH1 111425Z 26001KT 21/14 A302 RMK A01 T02120143  RH  065%=      5-min Rain = 0
KTH1 111426Z 27001KT 21/14 A302 RMK A01 T02120139  RH  063%=      5-min Rain = 0
KTH1 111427Z 27001KT 21/14 A302 RMK A01 T02130139  RH  063%=      5-min Rain = 0
KTH1 111428Z 27001KT 21/14 A302 RMK A01 T02120142  RH  064%=      5-min Rain = 0
KTH1 111429Z 27001KT 21/14 A302 RMK A01 T02130142  RH  064%=      5-min Rain = 0
KTH1 111430Z 26001KT 21/14 A302 RMK A01 T02140143  RH  064%=      5-min Rain = 0
KTH1 111431Z 28000KT 21/14 A302 RMK A01 T02140142  RH  063%=      5-min Rain = 0
KTH1 111432Z 27001KT 22/14 A302 RMK A01 T02150143  RH  063%=      5-min Rain = 0
KTH1 111433Z 09000KT 22/14 A302 RMK A01 T02160140  RH  062%=      5-min Rain = 0
KTH1 111434Z 28000KT 22/14 A302 RMK A01 T02170139  RH  061%=      5-min Rain = 0
KTH1 111435Z 21002KT 22/14 A302 RMK A01 T02170139  RH  061%=      5-min Rain = 0
KTH1 111436Z 20003KT 22/14 A302 RMK A01 T02170136  RH  060%=      5-min Rain = 0
KTH1 111437Z 17002KT 22/13 A302 RMK A01 T02190134  RH  058%=      5-min Rain = 0
KTH1 111438Z 18002KT 22/13 A302 RMK A01 T02200133  RH  058%=      5-min Rain = 0
KTH1 111439Z 16002KT 22/13 A302 RMK A01 T02210134  RH  058%=      5-min Rain = 0
KTH1 111440Z 17004KT 22/13 A302 RMK A01 T02220134  RH  057%=      5-min Rain = 0
KTH1 111441Z 18003KT 22/13 A302 RMK A01 T02230132  RH  056%=      5-min Rain = 0
KTH1 111442Z 18003KT 22/13 A302 RMK A01 T02240132  RH  056%=      5-min Rain = 0
KTH1 111443Z 20001KT 23/14 A302 RMK A01 T02250136  RH  057%=      5-min Rain = 0
KTH1 111444Z 17002KT 23/14 A302 RMK A01 T02260136  RH  057%=      5-min Rain = 0
KTH1 111445Z 15002KT 23/14 A302 RMK A01 T02270136  RH  056%=      5-min Rain = 0
KTH1 111446Z 15003KT 23/14 A302 RMK A01 T02290135  RH  056%=      5-min Rain = 0
KTH1 111447Z 14002KT 23/14 A302 RMK A01 T02300136  RH  055%=      5-min Rain = 0
KTH1 111448Z 17003KT 23/14 A302 RMK A01 T02310139  RH  056%=      5-min Rain = 0
KTH1 111449Z 14004KT 23/13 A302 RMK A01 T02320134  RH  054%=      5-min Rain = 0
KTH1 111450Z 13004KT 23/13 A302 RMK A01 T02320133  RH  053%=      5-min Rain = 0
KTH1 111451Z 14004KT 23/14 A302 RMK A01 T02320137  RH  055%=      5-min Rain = 0
KTH1 111452Z 14002KT 23/14 A302 RMK A01 T02320135  RH  054%=      5-min Rain = 0
KTH1 111453Z 17002KT 23/14 A302 RMK A01 T02330136  RH  054%=      5-min Rain = 0
KTH1 111454Z 15002KT 23/14 A302 RMK A01 T02340137  RH  054%=      5-min Rain = 0
KTH1 111455Z 13002KT 24/14 A302 RMK A01 T02350138  RH  054%=      5-min Rain = 0
KTH1 111456Z 13004KT 24/14 A302 RMK A01 T02360137  RH  054%=      5-min Rain = 0
KTH1 111457Z 14004KT 24/14 A302 RMK A01 T02370136  RH  053%=      5-min Rain = 0
KTH1 111458Z 14004KT 24/13 A302 RMK A01 T02370134  RH  053%=      5-min Rain = 0
KTH1 111459Z 13003KT 24/13 A302 RMK A01 T02370131  RH  052%=      5-min Rain = 0
KTH1 111500Z 15002KT 24/13 A302 RMK A01 T02350134  RH  053%=      5-min Rain = 0
KTH1 111501Z 17003KT 24/14 A302 RMK A01 T02350135  RH  053%=      5-min Rain = 0
KTH1 111502Z 17003KT 24/14 A302 RMK A01 T02360138  RH  054%=      5-min Rain = 0
KTH1 111503Z 21003KT 24/14 A302 RMK A01 T02360135  RH  053%=      5-min Rain = 0
KTH1 111504Z 21003KT 24/13 A302 RMK A01 T02360130  RH  052%=      5-min Rain = 0
KTH1 111505Z 19003KT 24/13 A302 RMK A01 T02350133  RH  053%=      5-min Rain = 0
KTH1 111506Z 19003KT 23/13 A302 RMK A01 T02340132  RH  053%=      5-min Rain = 0
KTH1 111507Z 20003KT 24/13 A302 RMK A01 T02350132  RH  053%=      5-min Rain = 0
KTH1 111508Z 19003KT 24/13 A302 RMK A01 T02350130  RH  052%=      5-min Rain = 0
KTH1 111509Z 20002KT 23/13 A302 RMK A01 T02340133  RH  053%=      5-min Rain = 0
KTH1 111510Z 18004KT 24/14 A302 RMK A01 T02350136  RH  054%=      5-min Rain = 0
KTH1 111511Z 18004KT 24/13 A302 RMK A01 T02360132  RH  052%=      5-min Rain = 0
KTH1 111512Z 15002KT 24/13 A302 RMK A01 T02370132  RH  052%=      5-min Rain = 0
KTH1 111513Z 12001KT 24/13 A302 RMK A01 T02370132  RH  052%=      5-min Rain = 0
KTH1 111514Z 12001KT 24/13 A302 RMK A01 T02370133  RH  052%=      5-min Rain = 0
KTH1 111515Z 11002KT 24/13 A302 RMK A01 T02380133  RH  052%=      5-min Rain = 0
KTH1 111516Z 14003KT 24/14 A302 RMK A01 T02400136  RH  052%=      5-min Rain = 0
KTH1 111517Z 16003KT 24/13 A302 RMK A01 T02420130  RH  050%=      5-min Rain = 0
KTH1 111518Z 19004KT 24/13 A302 RMK A01 T02410133  RH  051%=      5-min Rain = 0
KTH1 111519Z 21003KT 24/13 A302 RMK A01 T02410134  RH  051%=      5-min Rain = 0
KTH1 111520Z 16002KT 24/14 A302 RMK A01 T02400135  RH  052%=      5-min Rain = 0
KTH1 111521Z 21001KT 24/13 A302 RMK A01 T02400131  RH  051%=      5-min Rain = 0
KTH1 111522Z 18001KT 24/14 A302 RMK A01 T02400137  RH  052%=      5-min Rain = 0
KTH1 111523Z 23001KT 24/14 A302 RMK A01 T02410139  RH  053%=      5-min Rain = 0
KTH1 111524Z 24000KT 24/13 A302 RMK A01 T02420133  RH  051%=      5-min Rain = 0
KTH1 111525Z 19001KT 24/14 A302 RMK A01 T02430137  RH  052%=      5-min Rain = 0
KTH1 111526Z 16003KT 24/13 A302 RMK A01 T02430134  RH  051%=      5-min Rain = 0
KTH1 111527Z 16003KT 24/13 A302 RMK A01 T02430132  RH  050%=      5-min Rain = 0
KTH1 111528Z 17001KT 24/14 A302 RMK A01 T02430135  RH  051%=      5-min Rain = 0
KTH1 111529Z 15003KT 24/13 A302 RMK A01 T02440132  RH  050%=      5-min Rain = 0
KTH1 111530Z 13001KT 24/13 A302 RMK A01 T02440131  RH  049%=      5-min Rain = 0
KTH1 111531Z 16001KT 24/13 A302 RMK A01 T02440132  RH  050%=      5-min Rain = 0
KTH1 111532Z 13001KT 25/13 A302 RMK A01 T02450134  RH  050%=      5-min Rain = 0
KTH1 111533Z 25002KT 25/14 A302 RMK A01 T02450138  RH  051%=      5-min Rain = 0
KTH1 111534Z 27002KT 25/14 A302 RMK A01 T02450143  RH  053%=      5-min Rain = 0
KTH1 111535Z 27001KT 25/14 A302 RMK A01 T02450140  RH  052%=      5-min Rain = 0
KTH1 111536Z 25002KT 25/14 A302 RMK A01 T02450140  RH  052%=      5-min Rain = 0
KTH1 111537Z 19001KT 24/14 A302 RMK A01 T02440138  RH  052%=      5-min Rain = 0
KTH1 111538Z 12002KT 25/13 A302 RMK A01 T02450130  RH  049%=      5-min Rain = 0
KTH1 111539Z 27001KT 25/14 A302 RMK A01 T02450136  RH  051%=      5-min Rain = 0
KTH1 111540Z 26002KT 25/14 A302 RMK A01 T02450139  RH  052%=      5-min Rain = 0
KTH1 111541Z 26002KT 25/14 A302 RMK A01 T02450139  RH  052%=      5-min Rain = 0
KTH1 111542Z 27003KT 25/14 A302 RMK A01 T02450139  RH  052%=      5-min Rain = 0
KTH1 111543Z 28003KT 24/14 A302 RMK A01 T02440140  RH  052%=      5-min Rain = 0
KTH1 111544Z 24003KT 24/14 A302 RMK A01 T02440140  RH  052%=      5-min Rain = 0
KTH1 111545Z 24001KT 24/14 A302 RMK A01 T02430141  RH  053%=      5-min Rain = 0
KTH1 111546Z 20001KT 24/14 A302 RMK A01 T02440135  RH  051%=      5-min Rain = 0
KTH1 111547Z 19003KT 25/14 A302 RMK A01 T02450135  RH  050%=      5-min Rain = 0
KTH1 111548Z 16001KT 25/13 A302 RMK A01 T02460132  RH  049%=      5-min Rain = 0
KTH1 111549Z 12003KT 25/13 A302 RMK A01 T02470132  RH  049%=      5-min Rain = 0
KTH1 111550Z 10002KT 25/13 A302 RMK A01 T02470130  RH  048%=      5-min Rain = 0
KTH1 111551Z 05001KT 25/13 A302 RMK A01 T02470134  RH  049%=      5-min Rain = 0
KTH1 111552Z 33001KT 25/13 A302 RMK A01 T02470132  RH  049%=      5-min Rain = 0
KTH1 111553Z 29002KT 25/14 A302 RMK A01 T02470137  RH  050%=      5-min Rain = 0
KTH1 111554Z 26003KT 25/14 A302 RMK A01 T02470139  RH  051%=      5-min Rain = 0
KTH1 111555Z 26002KT 25/14 A302 RMK A01 T02470140  RH  051%=      5-min Rain = 0
KTH1 111556Z 27003KT 25/14 A302 RMK A01 T02460140  RH  052%=      5-min Rain = 0
KTH1 111557Z 28003KT 25/13 A302 RMK A01 T02460133  RH  049%=      5-min Rain = 0
KTH1 111558Z 27002KT 25/14 A302 RMK A01 T02450135  RH  050%=      5-min Rain = 0
KTH1 111559Z 24002KT 25/13 A302 RMK A01 T02450134  RH  050%=      5-min Rain = 0
KTH1 111600Z 25002KT 25/13 A302 RMK A01 T02450133  RH  050%=      5-min Rain = 0
KTH1 111601Z 25001KT 25/13 A302 RMK A01 T02460131  RH  049%=      5-min Rain = 0
KTH1 111602Z 20001KT 25/13 A302 RMK A01 T02450134  RH  050%=      5-min Rain = 0
KTH1 111603Z 17001KT 25/13 A302 RMK A01 T02460133  RH  049%=      5-min Rain = 0
KTH1 111604Z 15001KT 25/13 A302 RMK A01 T02480127  RH  047%=      5-min Rain = 0
KTH1 111605Z 12001KT 25/13 A302 RMK A01 T02490128  RH  047%=      5-min Rain = 0
KTH1 111606Z 10000KT 25/13 A302 RMK A01 T02500127  RH  046%=      5-min Rain = 0
KTH1 111607Z 06001KT 25/13 A302 RMK A01 T02500128  RH  047%=      5-min Rain = 0
KTH1 111608Z 01001KT 25/13 A302 RMK A01 T02500132  RH  048%=      5-min Rain = 0
KTH1 111609Z 34001KT 25/13 A302 RMK A01 T02510133  RH  048%=      5-min Rain = 0
KTH1 111610Z 32002KT 25/14 A302 RMK A01 T02510136  RH  049%=      5-min Rain = 0
KTH1 111611Z 33001KT 25/13 A302 RMK A01 T02520134  RH  048%=      5-min Rain = 0
KTH1 111612Z 30001KT 25/13 A302 RMK A01 T02530131  RH  047%=      5-min Rain = 0
KTH1 111613Z 30000KT 25/13 A302 RMK A01 T02530132  RH  047%=      5-min Rain = 0
KTH1 111614Z 31001KT 25/13 A302 RMK A01 T02530130  RH  047%=      5-min Rain = 0
KTH1 111615Z 30001KT 25/14 A302 RMK A01 T02530135  RH  048%=      5-min Rain = 0
KTH1 111616Z 34002KT 25/13 A302 RMK A01 T02530134  RH  048%=      5-min Rain = 0
KTH1 111617Z 35002KT 25/14 A302 RMK A01 T02540135  RH  048%=      5-min Rain = 0
KTH1 111618Z 35002KT 25/14 A302 RMK A01 T02540136  RH  048%=      5-min Rain = 0
KTH1 111619Z 31002KT 26/14 A302 RMK A01 T02550135  RH  047%=      5-min Rain = 0
KTH1 111620Z 31002KT 26/13 A302 RMK A01 T02570133  RH  046%=      5-min Rain = 0
KTH1 111621Z 33001KT 26/13 A302 RMK A01 T02580130  RH  045%=      5-min Rain = 0
KTH1 111622Z 00000KT 26/13 A302 RMK A01 T02580131  RH  045%=      5-min Rain = 0
KTH1 111623Z 11001KT 26/13 A302 RMK A01 T02590131  RH  045%=      5-min Rain = 0
KTH1 111624Z 11000KT 26/13 A302 RMK A01 T02610131  RH  045%=      5-min Rain = 0
KTH1 111625Z 33000KT 26/13 A302 RMK A01 T02620129  RH  044%=      5-min Rain = 0
KTH1 111626Z 10001KT 26/13 A302 RMK A01 T02630125  RH  042%=      5-min Rain = 0
KTH1 111627Z 04001KT 26/13 A302 RMK A01 T02630127  RH  043%=      5-min Rain = 0
KTH1 111628Z 32001KT 26/13 A302 RMK A01 T02630129  RH  043%=      5-min Rain = 0
KTH1 111629Z 28000KT 26/13 A302 RMK A01 T02630133  RH  045%=      5-min Rain = 0
KTH1 111630Z 27001KT 26/14 A3019 RMK A01 T02630140  RH  047%=      5-min Rain = 0
KTH1 111631Z 28001KT 26/14 A3019 RMK A01 T02640139  RH  046%=      5-min Rain = 0
KTH1 111632Z 27002KT 27/13 A3019 RMK A01 T02650134  RH  044%=      5-min Rain = 0
KTH1 111633Z 27002KT 27/14 A3019 RMK A01 T02650136  RH  045%=      5-min Rain = 0
KTH1 111634Z 27002KT 26/13 A3019 RMK A01 T02640133  RH  044%=      5-min Rain = 0
KTH1 111635Z 25003KT 26/13 A3019 RMK A01 T02620133  RH  045%=      5-min Rain = 0
KTH1 111636Z 23003KT 26/13 A3019 RMK A01 T02600132  RH  045%=      5-min Rain = 0
KTH1 111637Z 25003KT 26/13 A3019 RMK A01 T02580130  RH  045%=      5-min Rain = 0
KTH1 111638Z 26003KT 26/13 A3019 RMK A01 T02570132  RH  046%=      5-min Rain = 0
KTH1 111639Z 26003KT 26/13 A3019 RMK A01 T02550130  RH  046%=      5-min Rain = 0
KTH1 111640Z 26003KT 26/13 A3019 RMK A01 T02550131  RH  046%=      5-min Rain = 0
KTH1 111641Z 26003KT 25/13 A3019 RMK A01 T02540131  RH  046%=      5-min Rain = 0
KTH1 111642Z 27003KT 26/13 A3019 RMK A01 T02550131  RH  046%=      5-min Rain = 0
KTH1 111643Z 26003KT 26/13 A3019 RMK A01 T02550132  RH  046%=      5-min Rain = 0
KTH1 111644Z 25003KT 26/13 A3018 RMK A01 T02550133  RH  047%=      5-min Rain = 0
KTH1 111645Z 25003KT 26/13 A3018 RMK A01 T02550132  RH  047%=      5-min Rain = 0
KTH1 111646Z 25002KT 26/13 A3018 RMK A01 T02550127  RH  045%=      5-min Rain = 0
KTH1 111647Z 27002KT 26/13 A3018 RMK A01 T02550129  RH  045%=      5-min Rain = 0
KTH1 111648Z 25003KT 26/13 A3018 RMK A01 T02550130  RH  046%=      5-min Rain = 0
KTH1 111649Z 25004KT 26/13 A3018 RMK A01 T02550130  RH  046%=      5-min Rain = 0
KTH1 111650Z 24003KT 26/13 A3018 RMK A01 T02550128  RH  045%=      5-min Rain = 0
KTH1 111651Z 23002KT 26/13 A3018 RMK A01 T02550126  RH  045%=      5-min Rain = 0
KTH1 111652Z 22001KT 26/13 A3018 RMK A01 T02550129  RH  046%=      5-min Rain = 0
KTH1 111653Z 26003KT 26/13 A3018 RMK A01 T02550130  RH  046%=      5-min Rain = 0
KTH1 111654Z 27003KT 26/13 A3018 RMK A01 T02560131  RH  046%=      5-min Rain = 0
KTH1 111655Z 27003KT 26/13 A3018 RMK A01 T02570132  RH  046%=      5-min Rain = 0
KTH1 111656Z 27002KT 26/13 A3018 RMK A01 T02590134  RH  046%=      5-min Rain = 0
KTH1 111657Z 27003KT 26/13 A3018 RMK A01 T02600129  RH  044%=      5-min Rain = 0
KTH1 111658Z 27002KT 26/13 A3018 RMK A01 T02600129  RH  044%=      5-min Rain = 0
KTH1 111659Z 26002KT 26/13 A3018 RMK A01 T02610127  RH  044%=      5-min Rain = 0
KTH1 111700Z 27002KT 26/13 A3018 RMK A01 T02610130  RH  044%=      5-min Rain = 0
KTH1 111701Z 30002KT 26/14 A3018 RMK A01 T02610135  RH  046%=      5-min Rain = 0
KTH1 111702Z 33002KT 26/13 A3018 RMK A01 T02620126  RH  043%=      5-min Rain = 0
KTH1 111703Z 31002KT 26/13 A3018 RMK A01 T02630127  RH  043%=      5-min Rain = 0
KTH1 111704Z 31002KT 26/13 A3018 RMK A01 T02630130  RH  044%=      5-min Rain = 0
KTH1 111705Z 25001KT 26/13 A3018 RMK A01 T02630126  RH  043%=      5-min Rain = 0
KTH1 111706Z 27002KT 26/13 A3018 RMK A01 T02630127  RH  043%=      5-min Rain = 0
KTH1 111707Z 34002KT 26/13 A3018 RMK A01 T02620129  RH  044%=      5-min Rain = 0
KTH1 111708Z 02002KT 26/13 A3018 RMK A01 T02610126  RH  043%=      5-min Rain = 0
KTH1 111709Z 34001KT 26/13 A3018 RMK A01 T02600128  RH  044%=      5-min Rain = 0
KTH1 111710Z 30001KT 26/12 A3018 RMK A01 T02610124  RH  043%=      5-min Rain = 0
KTH1 111711Z 27001KT 26/12 A3018 RMK A01 T02610121  RH  042%=      5-min Rain = 0
KTH1 111712Z 25003KT 26/12 A3018 RMK A01 T02610122  RH  042%=      5-min Rain = 0
KTH1 111713Z 23002KT 26/12 A3018 RMK A01 T02580124  RH  043%=      5-min Rain = 0
KTH1 111714Z 25003KT 26/13 A3018 RMK A01 T02580128  RH  044%=      5-min Rain = 0
KTH1 111715Z 26003KT 26/13 A3018 RMK A01 T02580128  RH  044%=      5-min Rain = 0
KTH1 111716Z 29005KT 26/13 A3018 RMK A01 T02590129  RH  045%=      5-min Rain = 0
KTH1 111717Z 34004KT 26/13 A3018 RMK A01 T02590132  RH  045%=      5-min Rain = 0
KTH1 111718Z 29002KT 26/13 A3018 RMK A01 T02600130  RH  044%=      5-min Rain = 0
KTH1 111719Z 04001KT 26/13 A3018 RMK A01 T02610130  RH  044%=      5-min Rain = 0
KTH1 111720Z 21000KT 26/13 A3018 RMK A01 T02620131  RH  044%=      5-min Rain = 0
KTH1 111721Z 33000KT 26/14 A3017 RMK A01 T02640141  RH  047%=      5-min Rain = 0
KTH1 111722Z 34002KT 27/14 A3017 RMK A01 T02670135  RH  044%=      5-min Rain = 0
KTH1 111723Z 02002KT 27/14 A3017 RMK A01 T02690137  RH  044%=      5-min Rain = 0
KTH1 111724Z 31002KT 27/13 A3017 RMK A01 T02710132  RH  042%=      5-min Rain = 0
KTH1 111725Z 31002KT 27/13 A3017 RMK A01 T02710131  RH  042%=      5-min Rain = 0
KTH1 111726Z 35003KT 27/13 A3017 RMK A01 T02710130  RH  042%=      5-min Rain = 0
KTH1 111727Z 33003KT 27/13 A3017 RMK A01 T02710128  RH  041%=      5-min Rain = 0
KTH1 111728Z 30002KT 27/12 A3017 RMK A01 T02690124  RH  040%=      5-min Rain = 0
KTH1 111729Z 30003KT 27/13 A3017 RMK A01 T02670127  RH  042%=      5-min Rain = 0
KTH1 111730Z 30002KT 27/13 A3017 RMK A01 T02660129  RH  043%=      5-min Rain = 0
KTH1 111731Z 33002KT 27/13 A3017 RMK A01 T02660128  RH  043%=      5-min Rain = 0
KTH1 111732Z 35003KT 27/13 A3017 RMK A01 T02670132  RH  043%=      5-min Rain = 0
KTH1 111733Z 03002KT 27/12 A3017 RMK A01 T02670123  RH  041%=      5-min Rain = 0
KTH1 111734Z 07000KT 27/13 A3017 RMK A01 T02660125  RH  042%=      5-min Rain = 0
KTH1 111735Z 25001KT 27/13 A3017 RMK A01 T02660128  RH  042%=      5-min Rain = 0
KTH1 111736Z 28003KT 27/13 A3017 RMK A01 T02670134  RH  044%=      5-min Rain = 0
KTH1 111737Z 30004KT 27/13 A3017 RMK A01 T02680130  RH  042%=      5-min Rain = 0
KTH1 111738Z 30003KT 27/13 A3017 RMK A01 T02680125  RH  041%=      5-min Rain = 0
KTH1 111739Z 26004KT 27/13 A3017 RMK A01 T02670132  RH  043%=      5-min Rain = 0
KTH1 111740Z 27004KT 27/13 A3017 RMK A01 T02670134  RH  044%=      5-min Rain = 0
KTH1 111741Z 26004KT 27/13 A3017 RMK A01 T02670131  RH  043%=      5-min Rain = 0
KTH1 111742Z 28003KT 27/13 A3017 RMK A01 T02670132  RH  043%=      5-min Rain = 0
KTH1 111743Z 27003KT 27/13 A3017 RMK A01 T02670133  RH  044%=      5-min Rain = 0
KTH1 111744Z 26003KT 27/13 A3017 RMK A01 T02670133  RH  043%=      5-min Rain = 0
KTH1 111745Z 25002KT 27/13 A3016 RMK A01 T02680131  RH  043%=      5-min Rain = 0
KTH1 111746Z 29003KT 27/14 A3016 RMK A01 T02670140  RH  045%=      5-min Rain = 0
KTH1 111747Z 32003KT 27/13 A3016 RMK A01 T02690131  RH  043%=      5-min Rain = 0
KTH1 111748Z 29002KT 27/14 A3016 RMK A01 T02700138  RH  044%=      5-min Rain = 0
KTH1 111749Z 32003KT 27/14 A3016 RMK A01 T02720140  RH  044%=      5-min Rain = 0
KTH1 111750Z 34005KT 27/14 A3016 RMK A01 T02740138  RH  043%=      5-min Rain = 0
KTH1 111751Z 35004KT 28/13 A3016 RMK A01 T02750128  RH  040%=      5-min Rain = 0
KTH1 111752Z 29002KT 27/13 A3016 RMK A01 T02730126  RH  040%=      5-min Rain = 0
KTH1 111753Z 23001KT 27/12 A3016 RMK A01 T02720124  RH  040%=      5-min Rain = 0
KTH1 111754Z 22002KT 27/13 A3016 RMK A01 T02710125  RH  040%=      5-min Rain = 0
KTH1 111755Z 14003KT 27/13 A3016 RMK A01 T02700130  RH  042%=      5-min Rain = 0
KTH1 111756Z 16004KT 27/13 A3016 RMK A01 T02720128  RH  041%=      5-min Rain = 0
KTH1 111757Z 17003KT 27/13 A3016 RMK A01 T02740128  RH  040%=      5-min Rain = 0
KTH1 111758Z 19002KT 28/12 A3016 RMK A01 T02750123  RH  039%=      5-min Rain = 0
KTH1 111759Z 24001KT 28/12 A3016 RMK A01 T02750122  RH  039%=      5-min Rain = 0
KTH1 111800Z 27002KT 28/13 A3016 RMK A01 T02750129  RH  040%=      5-min Rain = 0
KTH1 111801Z 28002KT 28/13 A3016 RMK A01 T02750129  RH  040%=      5-min Rain = 0
KTH1 111802Z 32003KT 28/12 A3016 RMK A01 T02750122  RH  039%=      5-min Rain = 0
KTH1 111803Z 01004KT 27/12 A3016 RMK A01 T02720121  RH  039%=      5-min Rain = 0
KTH1 111804Z 02002KT 27/12 A3015 RMK A01 T02700122  RH  040%=      5-min Rain = 0
KTH1 111805Z 34002KT 27/13 A3015 RMK A01 T02690129  RH  042%=      5-min Rain = 0
KTH1 111806Z 02004KT 27/13 A3015 RMK A01 T02700128  RH  041%=      5-min Rain = 0
KTH1 111807Z 05006KT 27/13 A3015 RMK A01 T02730128  RH  041%=      5-min Rain = 0
KTH1 111808Z 06004KT 27/12 A3015 RMK A01 T02730124  RH  040%=      5-min Rain = 0
KTH1 111809Z 07005KT 27/13 A3015 RMK A01 T02740126  RH  040%=      5-min Rain = 0
KTH1 111810Z 08002KT 27/12 A3015 RMK A01 T02730121  RH  039%=      5-min Rain = 0
KTH1 111811Z 18002KT 27/12 A3015 RMK A01 T02720121  RH  039%=      5-min Rain = 0
KTH1 111812Z 13002KT 27/12 A3015 RMK A01 T02730124  RH  040%=      5-min Rain = 0
KTH1 111813Z 07003KT 27/13 A3015 RMK A01 T02740126  RH  040%=      5-min Rain = 0
KTH1 111814Z 04003KT 28/13 A3015 RMK A01 T02750125  RH  039%=      5-min Rain = 0
KTH1 111815Z 02003KT 28/13 A3015 RMK A01 T02760129  RH  040%=      5-min Rain = 0
KTH1 111816Z 03004KT 28/13 A3015 RMK A01 T02770125  RH  039%=      5-min Rain = 0
KTH1 111817Z 05004KT 28/12 A3014 RMK A01 T02780121  RH  038%=      5-min Rain = 0
KTH1 111818Z 01007KT 28/13 A3014 RMK A01 T02780127  RH  039%=      5-min Rain = 0
KTH1 111819Z 00005KT 28/12 A3014 RMK A01 T02780123  RH  038%=      5-min Rain = 0
KTH1 111820Z 01006KT 28/13 A3014 RMK A01 T02770128  RH  040%=      5-min Rain = 0
KTH1 111821Z 02006KT 28/13 A3014 RMK A01 T02780125  RH  039%=      5-min Rain = 0
KTH1 111822Z 01008KT 28/12 A3014 RMK A01 T02780124  RH  039%=      5-min Rain = 0
KTH1 111823Z 02008KT 28/12 A3014 RMK A01 T02780124  RH  038%=      5-min Rain = 0
KTH1 111824Z 04005KT 28/12 A3014 RMK A01 T02780124  RH  039%=      5-min Rain = 0
KTH1 111825Z 03002KT 28/13 A3014 RMK A01 T02770125  RH  039%=      5-min Rain = 0
KTH1 111826Z 04002KT 28/12 A3014 RMK A01 T02770122  RH  038%=      5-min Rain = 0
KTH1 111827Z 02004KT 28/12 A3014 RMK A01 T02770122  RH  038%=      5-min Rain = 0
KTH1 111828Z 02002KT 28/13 A3014 RMK A01 T02770125  RH  039%=      5-min Rain = 0
KTH1 111829Z 32001KT 28/12 A3014 RMK A01 T02770121  RH  038%=      5-min Rain = 0
KTH1 111830Z 30001KT 28/13 A3014 RMK A01 T02780126  RH  039%=      5-min Rain = 0
KTH1 111831Z 27002KT 28/13 A3013 RMK A01 T02800126  RH  039%=      5-min Rain = 0
KTH1 111832Z 28002KT 28/13 A3013 RMK A01 T02810132  RH  040%=      5-min Rain = 0
KTH1 111833Z 24003KT 28/13 A3013 RMK A01 T02830134  RH  040%=      5-min Rain = 0
KTH1 111834Z 22003KT 28/13 A3013 RMK A01 T02840125  RH  038%=      5-min Rain = 0
KTH1 111835Z 26002KT 28/13 A3013 RMK A01 T02840127  RH  038%=      5-min Rain = 0
KTH1 111836Z 29002KT 28/13 A3013 RMK A01 T02840128  RH  038%=      5-min Rain = 0
KTH1 111837Z 34002KT 28/13 A3013 RMK A01 T02830131  RH  039%=      5-min Rain = 0
KTH1 111838Z 35003KT 28/13 A3013 RMK A01 T02840125  RH  038%=      5-min Rain = 0
KTH1 111839Z 34003KT 28/13 A3013 RMK A01 T02840130  RH  039%=      5-min Rain = 0
KTH1 111840Z 01006KT 28/13 A3013 RMK A01 T02830125  RH  038%=      5-min Rain = 0
KTH1 111841Z 04005KT 28/12 A3013 RMK A01 T02830121  RH  037%=      5-min Rain = 0
KTH1 111842Z 06004KT 28/12 A3013 RMK A01 T02820124  RH  038%=      5-min Rain = 0
KTH1 111843Z 06003KT 28/13 A3013 RMK A01 T02820127  RH  038%=      5-min Rain = 0
KTH1 111844Z 09002KT 28/13 A3013 RMK A01 T02830125  RH  038%=      5-min Rain = 0
KTH1 111845Z 05003KT 29/13 A3013 RMK A01 T02850127  RH  038%=      5-min Rain = 0
KTH1 111846Z 12002KT 29/13 A3013 RMK A01 T02860125  RH  037%=      5-min Rain = 0
KTH1 111847Z 12001KT 29/13 A3013 RMK A01 T02860126  RH  037%=      5-min Rain = 0
KTH1 111848Z 10004KT 29/13 A3013 RMK A01 T02870127  RH  037%=      5-min Rain = 0
KTH1 111849Z 10004KT 29/12 A3013 RMK A01 T02880123  RH  036%=      5-min Rain = 0
KTH1 111850Z 07006KT 29/13 A3013 RMK A01 T02880127  RH  037%=      5-min Rain = 0
KTH1 111851Z 07005KT 29/13 A3013 RMK A01 T02880128  RH  037%=      5-min Rain = 0
KTH1 111852Z 05003KT 29/13 A3013 RMK A01 T02890125  RH  036%=      5-min Rain = 0
KTH1 111853Z 03003KT 29/12 A3013 RMK A01 T02880124  RH  036%=      5-min Rain = 0
KTH1 111854Z 35006KT 29/13 A3012 RMK A01 T02870129  RH  038%=      5-min Rain = 0
KTH1 111855Z 34006KT 29/13 A3012 RMK A01 T02890129  RH  037%=      5-min Rain = 0
KTH1 111856Z 34009KT 29/12 A3012 RMK A01 T02890124  RH  036%=      5-min Rain = 0
KTH1 111857Z 33007KT 29/12 A3012 RMK A01 T02860122  RH  036%=      5-min Rain = 0
KTH1 111858Z 34006KT 29/12 A3012 RMK A01 T02850124  RH  037%=      5-min Rain = 0
KTH1 111859Z 32004KT 29/13 A3012 RMK A01 T02850127  RH  038%=      5-min Rain = 0
KTH1 111900Z 31005KT 29/13 A3012 RMK A01 T02860127  RH  038%=      5-min Rain = 0
KTH1 111901Z 00002KT 29/13 A3012 RMK A01 T02860133  RH  039%=      5-min Rain = 0
KTH1 111902Z 01005KT 29/13 A3012 RMK A01 T02890134  RH  039%=      5-min Rain = 0
KTH1 111903Z 02005KT 29/13 A3012 RMK A01 T02900125  RH  036%=      5-min Rain = 0
KTH1 111904Z 01003KT 29/13 A3012 RMK A01 T02900125  RH  036%=      5-min Rain = 0
KTH1 111905Z 00003KT 29/13 A3012 RMK A01 T02900125  RH  036%=      5-min Rain = 0
KTH1 111906Z 06005KT 29/13 A3012 RMK A01 T02900128  RH  037%=      5-min Rain = 0
KTH1 111907Z 07007KT 29/13 A3012 RMK A01 T02900127  RH  037%=      5-min Rain = 0
KTH1 111908Z 07007KT 29/13 A3012 RMK A01 T02900127  RH  036%=      5-min Rain = 0
KTH1 111909Z 09003KT 29/12 A3012 RMK A01 T02900124  RH  036%=      5-min Rain = 0
KTH1 111910Z 34001KT 29/13 A3012 RMK A01 T02890127  RH  037%=      5-min Rain = 0
KTH1 111911Z 06006KT 29/13 A3012 RMK A01 T02890125  RH  036%=      5-min Rain = 0
KTH1 111912Z 07004KT 29/13 A3012 RMK A01 T02890127  RH  037%=      5-min Rain = 0
KTH1 111913Z 06006KT 29/13 A3012 RMK A01 T02890129  RH  037%=      5-min Rain = 0
KTH1 111914Z 08006KT 29/13 A3012 RMK A01 T02900129  RH  037%=      5-min Rain = 0
KTH1 111915Z 10005KT 29/13 A3012 RMK A01 T02910127  RH  036%=      5-min Rain = 0
KTH1 111916Z 11004KT 29/12 A3011 RMK A01 T02910124  RH  036%=      5-min Rain = 0
KTH1 111917Z 08004KT 29/13 A3011 RMK A01 T02900128  RH  037%=      5-min Rain = 0
KTH1 111918Z 05004KT 29/13 A3011 RMK A01 T02910129  RH  037%=      5-min Rain = 0
KTH1 111919Z 06002KT 29/13 A3011 RMK A01 T02920125  RH  036%=      5-min Rain = 0
KTH1 111920Z 06002KT 29/13 A3011 RMK A01 T02930127  RH  036%=      5-min Rain = 0
KTH1 111921Z 04005KT 29/13 A3011 RMK A01 T02930129  RH  036%=      5-min Rain = 0
KTH1 111922Z 05003KT 29/13 A3011 RMK A01 T02940129  RH  036%=      5-min Rain = 0
KTH1 111923Z 04006G12KT 30/13 A3011 RMK A01 T02960127  RH  036%=      5-min Rain = 0
KTH1 111924Z 02009KT 30/12 A3011 RMK A01 T02970124  RH  034%=      5-min Rain = 0
KTH1 111925Z 02007KT 30/12 A3011 RMK A01 T02950123  RH  035%=      5-min Rain = 0
KTH1 111926Z 04008KT 29/12 A3011 RMK A01 T02920123  RH  035%=      5-min Rain = 0
KTH1 111927Z 05007KT 29/12 A3011 RMK A01 T02920124  RH  036%=      5-min Rain = 0
KTH1 111928Z 03005KT 29/13 A3011 RMK A01 T02930126  RH  036%=      5-min Rain = 0
KTH1 111929Z 05006KT 29/13 A3011 RMK A01 T02940125  RH  035%=      5-min Rain = 0
KTH1 111930Z 02006KT 29/13 A3011 RMK A01 T02940125  RH  035%=      5-min Rain = 0
KTH1 111931Z 01005KT 29/12 A3011 RMK A01 T02930123  RH  035%=      5-min Rain = 0
KTH1 111932Z 35005KT 29/12 A3011 RMK A01 T02920123  RH  035%=      5-min Rain = 0
KTH1 111933Z 01004KT 29/12 A3011 RMK A01 T02920122  RH  035%=      5-min Rain = 0
KTH1 111934Z 04006KT 29/12 A3011 RMK A01 T02910123  RH  035%=      5-min Rain = 0
KTH1 111935Z 06004KT 29/12 A301 RMK A01 T02910122  RH  035%=      5-min Rain = 0
KTH1 111936Z 03002KT 29/12 A301 RMK A01 T02910124  RH  036%=      5-min Rain = 0
KTH1 111937Z 35002KT 29/12 A301 RMK A01 T02920122  RH  035%=      5-min Rain = 0
KTH1 111938Z 34003KT 29/13 A301 RMK A01 T02930126  RH  036%=      5-min Rain = 0
KTH1 111939Z 01005KT 29/13 A301 RMK A01 T02940127  RH  036%=      5-min Rain = 0
KTH1 111940Z 03003KT 30/13 A301 RMK A01 T02950131  RH  036%=      5-min Rain = 0
KTH1 111941Z 05002KT 30/13 A301 RMK A01 T02970127  RH  035%=      5-min Rain = 0
KTH1 111942Z 03003KT 30/13 A301 RMK A01 T02980128  RH  035%=      5-min Rain = 0
KTH1 111943Z 02006KT 30/13 A301 RMK A01 T02980127  RH  035%=      5-min Rain = 0
KTH1 111944Z 35008KT 30/13 A301 RMK A01 T02980128  RH  035%=      5-min Rain = 0
KTH1 111945Z 03009G14KT 30/13 A301 RMK A01 T02970129  RH  036%=      5-min Rain = 0
KTH1 111946Z 03010KT 30/13 A301 RMK A01 T02960128  RH  036%=      5-min Rain = 0
KTH1 111947Z 02007KT 30/13 A301 RMK A01 T02950125  RH  035%=      5-min Rain = 0
KTH1 111948Z 02003KT 29/12 A301 RMK A01 T02930124  RH  035%=      5-min Rain = 0
KTH1 111949Z 34002KT 29/13 A301 RMK A01 T02920129  RH  037%=      5-min Rain = 0
KTH1 111950Z 34005KT 29/13 A301 RMK A01 T02930127  RH  036%=      5-min Rain = 0
KTH1 111951Z 02006G11KT 29/13 A3009 RMK A01 T02940128  RH  036%=      5-min Rain = 0
KTH1 111952Z 03010KT 30/13 A3009 RMK A01 T02950127  RH  036%=      5-min Rain = 0
KTH1 111953Z 03008KT 30/12 A3009 RMK A01 T02950124  RH  035%=      5-min Rain = 0
KTH1 111954Z 04007KT 29/13 A3009 RMK A01 T02940127  RH  036%=      5-min Rain = 0
KTH1 111955Z 02007KT 30/13 A3009 RMK A01 T02950127  RH  036%=      5-min Rain = 0
KTH1 111956Z 03006KT 30/13 A3009 RMK A01 T02960126  RH  035%=      5-min Rain = 0
KTH1 111957Z 04005KT 30/13 A3009 RMK A01 T02960128  RH  035%=      5-min Rain = 0
KTH1 111958Z 04007KT 30/13 A3009 RMK A01 T02980126  RH  035%=      5-min Rain = 0
KTH1 111959Z 01005KT 30/12 A3009 RMK A01 T02980124  RH  034%=      5-min Rain = 0
KTH1 112000Z 04006KT 30/12 A3009 RMK A01 T02970124  RH  034%=      5-min Rain = 0
KTH1 112001Z 05006KT 30/12 A3009 RMK A01 T02970124  RH  035%=      5-min Rain = 0
KTH1 112002Z 07003KT 30/12 A3009 RMK A01 T02960119  RH  034%=      5-min Rain = 0
KTH1 112003Z 04003KT 29/12 A3009 RMK A01 T02940121  RH  034%=      5-min Rain = 0
KTH1 112004Z 13002KT 29/12 A3009 RMK A01 T02940122  RH  035%=      5-min Rain = 0
KTH1 112005Z 01002KT 29/12 A3009 RMK A01 T02940122  RH  035%=      5-min Rain = 0
KTH1 112006Z 01006KT 29/12 A3009 RMK A01 T02940122  RH  035%=      5-min Rain = 0
KTH1 112007Z 02005KT 30/12 A3009 RMK A01 T02950124  RH  035%=      5-min Rain = 0
KTH1 112008Z 03008KT 30/13 A3009 RMK A01 T02960128  RH  036%=      5-min Rain = 0
KTH1 112009Z 04007KT 30/12 A3008 RMK A01 T02960123  RH  034%=      5-min Rain = 0
KTH1 112010Z 02006KT 30/13 A3009 RMK A01 T02960130  RH  036%=      5-min Rain = 0
KTH1 112011Z 03006KT 30/13 A3008 RMK A01 T02970126  RH  035%=      5-min Rain = 0
KTH1 112012Z 03005KT 30/13 A3008 RMK A01 T02970127  RH  035%=      5-min Rain = 0
KTH1 112013Z 02004KT 30/12 A3008 RMK A01 T02970123  RH  034%=      5-min Rain = 0
KTH1 112014Z 03007KT 30/12 A3008 RMK A01 T02970124  RH  035%=      5-min Rain = 0
KTH1 112015Z 02010KT 30/13 A3008 RMK A01 T02960125  RH  035%=      5-min Rain = 0
KTH1 112016Z 01008KT 30/12 A3008 RMK A01 T02970123  RH  034%=      5-min Rain = 0
KTH1 112017Z 02007KT 30/12 A3008 RMK A01 T02960123  RH  034%=      5-min Rain = 0
KTH1 112018Z 03006KT 30/12 A3008 RMK A01 T02950124  RH  035%=      5-min Rain = 0
KTH1 112019Z 04004KT 30/12 A3008 RMK A01 T02950123  RH  035%=      5-min Rain = 0
KTH1 112020Z 10002KT 30/12 A3008 RMK A01 T02960119  RH  034%=      5-min Rain = 0
KTH1 112021Z 16001KT 30/12 A3008 RMK A01 T02950115  RH  033%=      5-min Rain = 0
KTH1 112022Z 28000KT 29/12 A3008 RMK A01 T02930118  RH  034%=      5-min Rain = 0
KTH1 112023Z 34001KT 29/13 A3008 RMK A01 T02930126  RH  036%=      5-min Rain = 0
KTH1 112024Z 02000KT 30/13 A3007 RMK A01 T02950126  RH  036%=      5-min Rain = 0
KTH1 112025Z 09001KT 30/13 A3007 RMK A01 T02970130  RH  036%=      5-min Rain = 0
KTH1 112026Z 10002KT 30/12 A3007 RMK A01 T02990123  RH  034%=      5-min Rain = 0
KTH1 112027Z 06005KT 30/13 A3007 RMK A01 T03000126  RH  034%=      5-min Rain = 0
KTH1 112028Z 04006KT 30/13 A3007 RMK A01 T03020128  RH  034%=      5-min Rain = 0
KTH1 112029Z 03004KT 30/13 A3007 RMK A01 T03030125  RH  034%=      5-min Rain = 0
KTH1 112030Z 04004KT 30/13 A3007 RMK A01 T03020128  RH  034%=      5-min Rain = 0
KTH1 112031Z 04003KT 30/12 A3007 RMK A01 T03020122  RH  033%=      5-min Rain = 0
KTH1 112032Z 02006KT 30/13 A3007 RMK A01 T03030126  RH  034%=      5-min Rain = 0
KTH1 112033Z 02007KT 30/13 A3007 RMK A01 T03030126  RH  034%=      5-min Rain = 0
KTH1 112034Z 35008KT 30/12 A3007 RMK A01 T03030122  RH  033%=      5-min Rain = 0
KTH1 112035Z 00008KT 30/12 A3007 RMK A01 T03000122  RH  033%=      5-min Rain = 0
KTH1 112036Z 00006KT 30/12 A3007 RMK A01 T02990122  RH  034%=      5-min Rain = 0
KTH1 112037Z 03006KT 30/13 A3007 RMK A01 T02990126  RH  035%=      5-min Rain = 0
KTH1 112038Z 35004KT 30/13 A3007 RMK A01 T02990126  RH  034%=      5-min Rain = 0
KTH1 112039Z 34006KT 30/13 A3007 RMK A01 T03000128  RH  035%=      5-min Rain = 0
KTH1 112040Z 02004KT 30/13 A3007 RMK A01 T03020127  RH  034%=      5-min Rain = 0
KTH1 112041Z 33005KT 30/13 A3007 RMK A01 T03020131  RH  035%=      5-min Rain = 0
KTH1 112042Z 01008KT 30/13 A3007 RMK A01 T03030128  RH  034%=      5-min Rain = 0
KTH1 112043Z 04006KT 30/13 A3007 RMK A01 T03030126  RH  034%=      5-min Rain = 0
KTH1 112044Z 03004KT 30/12 A3007 RMK A01 T03030121  RH  033%=      5-min Rain = 0
KTH1 112045Z 07003KT 30/13 A3007 RMK A01 T03010125  RH  034%=      5-min Rain = 0
KTH1 112046Z 02004KT 30/13 A3007 RMK A01 T03020129  RH  035%=      5-min Rain = 0
KTH1 112047Z 33005KT 30/12 A3007 RMK A01 T03020124  RH  034%=      5-min Rain = 0
KTH1 112048Z 32007KT 30/13 A3006 RMK A01 T03020126  RH  034%=      5-min Rain = 0
KTH1 112049Z 33005KT 30/13 A3006 RMK A01 T03010125  RH  034%=      5-min Rain = 0
KTH1 112050Z 06005KT 30/12 A3006 RMK A01 T03000123  RH  034%=      5-min Rain = 0
KTH1 112051Z 01004KT 30/13 A3006 RMK A01 T03010128  RH  035%=      5-min Rain = 0
KTH1 112052Z 01007KT 30/13 A3006 RMK A01 T03030132  RH  035%=      5-min Rain = 0
KTH1 112053Z 01008KT 30/12 A3006 RMK A01 T03040123  RH  033%=      5-min Rain = 0
KTH1 112054Z 00006KT 30/12 A3006 RMK A01 T03020121  RH  033%=      5-min Rain = 0
KTH1 112055Z 01004KT 30/13 A3006 RMK A01 T03020128  RH  035%=      5-min Rain = 0
KTH1 112056Z 01006G11KT 30/13 A3006 RMK A01 T03020129  RH  035%=      5-min Rain = 0
KTH1 112057Z 02007KT 30/12 A3006 RMK A01 T03030123  RH  033%=      5-min Rain = 0
KTH1 112058Z 02009KT 30/13 A3006 RMK A01 T03030127  RH  034%=      5-min Rain = 0
KTH1 112059Z 01007KT 30/12 A3006 RMK A01 T03020124  RH  033%=      5-min Rain = 0
KTH1 112100Z 00005KT 30/12 A3006 RMK A01 T03020123  RH  033%=      5-min Rain = 0
KTH1 112101Z 03004KT 30/13 A3006 RMK A01 T03010126  RH  034%=      5-min Rain = 0
KTH1 112102Z 04005KT 30/12 A3006 RMK A01 T03010122  RH  033%=      5-min Rain = 0
KTH1 112103Z 07006KT 30/12 A3006 RMK A01 T03020115  RH  032%=      5-min Rain = 0
KTH1 112104Z 07006KT 30/12 A3006 RMK A01 T03020117  RH  032%=      5-min Rain = 0
KTH1 112105Z 05003KT 30/12 A3006 RMK A01 T03010116  RH  032%=      5-min Rain = 0
KTH1 112106Z 04004KT 30/12 A3006 RMK A01 T03010115  RH  032%=      5-min Rain = 0
KTH1 112107Z 05003KT 30/12 A3006 RMK A01 T03000116  RH  032%=      5-min Rain = 0
KTH1 112108Z 09003KT 30/12 A3006 RMK A01 T03000116  RH  032%=      5-min Rain = 0
KTH1 112109Z 06004KT 30/12 A3006 RMK A01 T03000122  RH  034%=      5-min Rain = 0
KTH1 112110Z 03005KT 30/12 A3005 RMK A01 T03010122  RH  033%=      5-min Rain = 0
KTH1 112111Z 36007KT 30/12 A3005 RMK A01 T03020124  RH  034%=      5-min Rain = 0
KTH1 112112Z 36006KT 30/12 A3005 RMK A01 T03030120  RH  032%=      5-min Rain = 0
KTH1 112113Z 34003KT 30/12 A3005 RMK A01 T03020122  RH  033%=      5-min Rain = 0
KTH1 112114Z 33005KT 30/13 A3005 RMK A01 T03010126  RH  034%=      5-min Rain = 0
KTH1 112115Z 33004KT 30/12 A3005 RMK A01 T03020124  RH  034%=      5-min Rain = 0
KTH1 112116Z 33005KT 30/12 A3005 RMK A01 T03020121  RH  033%=      5-min Rain = 0
KTH1 112117Z 33001KT 30/12 A3005 RMK A01 T03020119  RH  032%=      5-min Rain = 0
KTH1 112118Z 35005KT 30/12 A3005 RMK A01 T03020124  RH  033%=      5-min Rain = 0
KTH1 112119Z 35004KT 30/13 A3005 RMK A01 T03020127  RH  034%=      5-min Rain = 0
KTH1 112120Z 34005KT 30/13 A3005 RMK A01 T03030128  RH  034%=      5-min Rain = 0
KTH1 112121Z 35004KT 30/13 A3005 RMK A01 T03030125  RH  033%=      5-min Rain = 0
KTH1 112122Z 34003KT 30/13 A3005 RMK A01 T03030131  RH  035%=      5-min Rain = 0
KTH1 112123Z 04005KT 30/12 A3005 RMK A01 T03030121  RH  033%=      5-min Rain = 0
KTH1 112124Z 07007KT 30/12 A3005 RMK A01 T03030123  RH  033%=      5-min Rain = 0
KTH1 112125Z 07008KT 30/12 A3005 RMK A01 T03030120  RH  032%=      5-min Rain = 0
KTH1 112126Z 07008KT 30/12 A3005 RMK A01 T03030121  RH  033%=      5-min Rain = 0
KTH1 112127Z 06007KT 30/12 A3005 RMK A01 T03030119  RH  032%=      5-min Rain = 0
KTH1 112128Z 06008KT 30/12 A3005 RMK A01 T03020124  RH  033%=      5-min Rain = 0
KTH1 112129Z 03007KT 30/13 A3005 RMK A01 T03030126  RH  034%=      5-min Rain = 0
KTH1 112130Z 04007KT 30/12 A3005 RMK A01 T03040124  RH  033%=      5-min Rain = 0
KTH1 112131Z 05006KT 30/12 A3005 RMK A01 T03040122  RH  033%=      5-min Rain = 0
KTH1 112132Z 05007KT 30/13 A3005 RMK A01 T03040125  RH  033%=      5-min Rain = 0
KTH1 112133Z 05005KT 30/12 A3004 RMK A01 T03040121  RH  032%=      5-min Rain = 0
KTH1 112134Z 03009KT 30/12 A3004 RMK A01 T03040122  RH  033%=      5-min Rain = 0
KTH1 112135Z 03007KT 30/12 A3004 RMK A01 T03020120  RH  033%=      5-min Rain = 0
KTH1 112136Z 03008KT 30/12 A3004 RMK A01 T03010120  RH  033%=      5-min Rain = 0
KTH1 112137Z 04006KT 30/12 A3004 RMK A01 T03000121  RH  033%=      5-min Rain = 0
KTH1 112138Z 05005KT 30/12 A3004 RMK A01 T03000120  RH  033%=      5-min Rain = 0
KTH1 112139Z 00005KT 30/12 A3004 RMK A01 T03010119  RH  033%=      5-min Rain = 0
KTH1 112140Z 03006KT 30/12 A3004 RMK A01 T03010118  RH  033%=      5-min Rain = 0
KTH1 112141Z 36005KT 30/12 A3004 RMK A01 T03010123  RH  034%=      5-min Rain = 0
KTH1 112142Z 02005KT 30/12 A3004 RMK A01 T03010120  RH  033%=      5-min Rain = 0
KTH1 112143Z 04007KT 30/12 A3004 RMK A01 T03020121  RH  033%=      5-min Rain = 0
KTH1 112144Z 03006KT 30/12 A3004 RMK A01 T03020119  RH  032%=      5-min Rain = 0
KTH1 112145Z 04005KT 30/12 A3004 RMK A01 T03020120  RH  033%=      5-min Rain = 0
KTH1 112146Z 06005KT 30/12 A3004 RMK A01 T03020120  RH  033%=      5-min Rain = 0
KTH1 112147Z 04004KT 30/12 A3004 RMK A01 T03020117  RH  032%=      5-min Rain = 0
KTH1 112148Z 03003KT 30/12 A3004 RMK A01 T03020118  RH  032%=      5-min Rain = 0
KTH1 112149Z 03006KT 30/12 A3004 RMK A01 T03010119  RH  033%=      5-min Rain = 0
KTH1 112150Z 07006KT 30/12 A3004 RMK A01 T03010119  RH  033%=      5-min Rain = 0
KTH1 112151Z 07006KT 30/12 A3004 RMK A01 T03010120  RH  033%=      5-min Rain = 0
KTH1 112152Z 06005KT 30/12 A3004 RMK A01 T03000119  RH  033%=      5-min Rain = 0
KTH1 112153Z 03004KT 30/12 A3004 RMK A01 T03010124  RH  034%=      5-min Rain = 0
KTH1 112154Z 03005KT 30/12 A3004 RMK A01 T03030121  RH  033%=      5-min Rain = 0
KTH1 112155Z 04006KT 30/12 A3004 RMK A01 T03030121  RH  033%=      5-min Rain = 0
KTH1 112156Z 04006KT 30/12 A3004 RMK A01 T03030119  RH  032%=      5-min Rain = 0
KTH1 112157Z 04004KT 30/12 A3004 RMK A01 T03020116  RH  032%=      5-min Rain = 0
KTH1 112158Z 07005KT 30/12 A3004 RMK A01 T03020120  RH  033%=      5-min Rain = 0
KTH1 112159Z 04007KT 30/12 A3003 RMK A01 T03010119  RH  033%=      5-min Rain = 0
KTH1 112200Z 01007KT 30/12 A3004 RMK A01 T03010121  RH  033%=      5-min Rain = 0
KTH1 112201Z 02008KT 30/12 A3004 RMK A01 T03010119  RH  033%=      5-min Rain = 0
KTH1 112202Z 03008KT 30/12 A3004 RMK A01 T03000116  RH  032%=      5-min Rain = 0
KTH1 112203Z 02008KT 30/12 A3004 RMK A01 T02990117  RH  032%=      5-min Rain = 0
KTH1 112204Z 01005KT 30/12 A3004 RMK A01 T02980115  RH  032%=      5-min Rain = 0
KTH1 112205Z 00006KT 30/12 A3004 RMK A01 T02980118  RH  033%=      5-min Rain = 0
KTH1 112206Z 03004KT 30/12 A3004 RMK A01 T02980121  RH  034%=      5-min Rain = 0
KTH1 112207Z 05006KT 30/13 A3004 RMK A01 T03000125  RH  034%=      5-min Rain = 0
KTH1 112208Z 06005KT 30/12 A3004 RMK A01 T03010119  RH  033%=      5-min Rain = 0
KTH1 112209Z 04006KT 30/12 A3004 RMK A01 T03010118  RH  032%=      5-min Rain = 0
KTH1 112210Z 05008KT 30/12 A3003 RMK A01 T03010118  RH  032%=      5-min Rain = 0
KTH1 112211Z 05009KT 30/12 A3003 RMK A01 T03000117  RH  032%=      5-min Rain = 0
KTH1 112212Z 06007KT 30/12 A3004 RMK A01 T02990116  RH  032%=      5-min Rain = 0
KTH1 112213Z 06006KT 30/12 A3003 RMK A01 T02990116  RH  032%=      5-min Rain = 0
KTH1 112214Z 05004KT 30/12 A3003 RMK A01 T02990118  RH  033%=      5-min Rain = 0
KTH1 112215Z 05007KT 30/11 A3003 RMK A01 T02990114  RH  032%=      5-min Rain = 0
KTH1 112216Z 06008KT 30/11 A3003 RMK A01 T03000114  RH  032%=      5-min Rain = 0
KTH1 112217Z 06008KT 30/11 A3003 RMK A01 T03000113  RH  031%=      5-min Rain = 0
KTH1 112218Z 06008KT 30/11 A3003 RMK A01 T03000111  RH  031%=      5-min Rain = 0
KTH1 112219Z 06006KT 30/11 A3003 RMK A01 T02990113  RH  032%=      5-min Rain = 0
KTH1 112220Z 05007KT 30/12 A3003 RMK A01 T02990115  RH  032%=      5-min Rain = 0
KTH1 112221Z 06005KT 30/12 A3003 RMK A01 T03000115  RH  032%=      5-min Rain = 0
KTH1 112222Z 08005KT 30/12 A3003 RMK A01 T03000117  RH  032%=      5-min Rain = 0
KTH1 112223Z 06005KT 30/12 A3003 RMK A01 T03010115  RH  032%=      5-min Rain = 0
KTH1 112224Z 05003KT 30/12 A3003 RMK A01 T03010120  RH  033%=      5-min Rain = 0
KTH1 112225Z 06006KT 30/12 A3003 RMK A01 T03020119  RH  033%=      5-min Rain = 0
KTH1 112226Z 06009KT 30/12 A3003 RMK A01 T03030116  RH  032%=      5-min Rain = 0
KTH1 112227Z 05009KT 30/12 A3003 RMK A01 T03010118  RH  032%=      5-min Rain = 0
KTH1 112228Z 05009KT 30/12 A3003 RMK A01 T03010118  RH  032%=      5-min Rain = 0
KTH1 112229Z 04008KT 30/12 A3003 RMK A01 T03010115  RH  032%=      5-min Rain = 0
KTH1 112230Z 04006KT 30/12 A3003 RMK A01 T03000115  RH  032%=      5-min Rain = 0
KTH1 112231Z 03005KT 30/12 A3003 RMK A01 T02990115  RH  032%=      5-min Rain = 0
KTH1 112232Z 04004KT 30/12 A3003 RMK A01 T02980116  RH  033%=      5-min Rain = 0
KTH1 112233Z 05005KT 30/12 A3003 RMK A01 T02980118  RH  033%=      5-min Rain = 0
KTH1 112234Z 07007KT 30/12 A3003 RMK A01 T02990115  RH  032%=      5-min Rain = 0
KTH1 112235Z 07006KT 30/11 A3003 RMK A01 T02990112  RH  031%=      5-min Rain = 0
KTH1 112236Z 05005KT 30/12 A3003 RMK A01 T02990116  RH  032%=      5-min Rain = 0
KTH1 112237Z 01002KT 30/12 A3003 RMK A01 T03000116  RH  032%=      5-min Rain = 0
KTH1 112238Z 03004KT 30/12 A3003 RMK A01 T03000116  RH  032%=      5-min Rain = 0
KTH1 112239Z 03005KT 30/12 A3003 RMK A01 T03000117  RH  032%=      5-min Rain = 0
KTH1 112240Z 03007KT 30/12 A3003 RMK A01 T03010116  RH  032%=      5-min Rain = 0
KTH1 112241Z 04009KT 30/11 A3003 RMK A01 T03010114  RH  032%=      5-min Rain = 0
KTH1 112242Z 04009KT 30/11 A3003 RMK A01 T03010112  RH  031%=      5-min Rain = 0
KTH1 112243Z 04006KT 30/11 A3003 RMK A01 T03000113  RH  032%=      5-min Rain = 0
KTH1 112244Z 04008KT 30/11 A3003 RMK A01 T02990112  RH  032%=      5-min Rain = 0
KTH1 112245Z 04006KT 30/11 A3003 RMK A01 T02980111  RH  031%=      5-min Rain = 0
KTH1 112246Z 03007G12KT 30/12 A3003 RMK A01 T02980115  RH  032%=      5-min Rain = 0
KTH1 112247Z 05008KT 30/11 A3003 RMK A01 T02980112  RH  032%=      5-min Rain = 0
KTH1 112248Z 05007KT 30/11 A3003 RMK A01 T02980111  RH  031%=      5-min Rain = 0
KTH1 112249Z 05005KT 30/11 A3003 RMK A01 T02980110  RH  031%=      5-min Rain = 0
KTH1 112250Z 06002KT 30/11 A3003 RMK A01 T02980114  RH  032%=      5-min Rain = 0
KTH1 112251Z 04005KT 30/12 A3003 RMK A01 T02980117  RH  033%=      5-min Rain = 0
KTH1 112252Z 04006KT 30/11 A3003 RMK A01 T03000111  RH  031%=      5-min Rain = 0
KTH1 112253Z 05006KT 30/11 A3003 RMK A01 T03000110  RH  031%=      5-min Rain = 0
KTH1 112254Z 06007KT 30/11 A3003 RMK A01 T03000110  RH  031%=      5-min Rain = 0
KTH1 112255Z 06008KT 30/11 A3003 RMK A01 T02990109  RH  031%=      5-min Rain = 0
KTH1 112256Z 06006KT 30/11 A3003 RMK A01 T02980108  RH  031%=      5-min Rain = 0
KTH1 112257Z 07006KT 30/11 A3003 RMK A01 T02980110  RH  031%=      5-min Rain = 0
KTH1 112258Z 07005KT 30/11 A3003 RMK A01 T02970112  RH  032%=      5-min Rain = 0
KTH1 112259Z 06007KT 30/11 A3003 RMK A01 T02970112  RH  032%=      5-min Rain = 0
KTH1 112300Z 05007KT 30/11 A3003 RMK A01 T02970114  RH  032%=      5-min Rain = 0
KTH1 112301Z 05006KT 30/12 A3003 RMK A01 T02960116  RH  033%=      5-min Rain = 0
KTH1 112302Z 05006KT 30/12 A3003 RMK A01 T02960118  RH  033%=      5-min Rain = 0
KTH1 112303Z 05006KT 30/12 A3003 RMK A01 T02970117  RH  033%=      5-min Rain = 0
KTH1 112304Z 04004KT 30/11 A3003 RMK A01 T02970113  RH  032%=      5-min Rain = 0
KTH1 112305Z 06005KT 30/12 A3003 RMK A01 T02960116  RH  033%=      5-min Rain = 0
KTH1 112306Z 08006KT 30/11 A3003 RMK A01 T02960111  RH  032%=      5-min Rain = 0
KTH1 112307Z 05005KT 30/11 A3003 RMK A01 T02960114  RH  032%=      5-min Rain = 0
KTH1 112308Z 06004KT 30/11 A3003 RMK A01 T02950113  RH  032%=      5-min Rain = 0
KTH1 112309Z 06004KT 30/12 A3003 RMK A01 T02960116  RH  033%=      5-min Rain = 0
KTH1 112310Z 06003KT 30/12 A3003 RMK A01 T02950119  RH  034%=      5-min Rain = 0
KTH1 112311Z 00003KT 30/12 A3003 RMK A01 T02960119  RH  034%=      5-min Rain = 0
KTH1 112312Z 03003KT 30/12 A3003 RMK A01 T02970121  RH  034%=      5-min Rain = 0
KTH1 112313Z 04005KT 30/12 A3003 RMK A01 T02970123  RH  034%=      5-min Rain = 0
KTH1 112314Z 04005KT 30/12 A3003 RMK A01 T02970118  RH  033%=      5-min Rain = 0
KTH1 112315Z 04005KT 30/12 A3003 RMK A01 T02970117  RH  033%=      5-min Rain = 0
KTH1 112316Z 03006KT 30/12 A3003 RMK A01 T02970115  RH  032%=      5-min Rain = 0
KTH1 112317Z 03005KT 30/12 A3003 RMK A01 T02970116  RH  033%=      5-min Rain = 0
KTH1 112318Z 03005KT 30/11 A3003 RMK A01 T02970110  RH  032%=      5-min Rain = 0
KTH1 112319Z 05004KT 30/11 A3003 RMK A01 T02960109  RH  031%=      5-min Rain = 0
KTH1 112320Z 04002KT 30/12 A3003 RMK A01 T02950115  RH  033%=      5-min Rain = 0
KTH1 112321Z 02004KT 30/11 A3003 RMK A01 T02950114  RH  033%=      5-min Rain = 0
KTH1 112322Z 02003KT 30/12 A3003 RMK A01 T02950115  RH  033%=      5-min Rain = 0
KTH1 112323Z 01003KT 30/11 A3003 RMK A01 T02950114  RH  033%=      5-min Rain = 0
KTH1 112324Z 02003KT 30/11 A3003 RMK A01 T02950113  RH  032%=      5-min Rain = 0
KTH1 112325Z 01004KT 30/11 A3003 RMK A01 T02950113  RH  032%=      5-min Rain = 0
KTH1 112326Z 03004KT 30/11 A3003 RMK A01 T02950114  RH  033%=      5-min Rain = 0
KTH1 112327Z 05004KT 30/12 A3003 RMK A01 T02950118  RH  034%=      5-min Rain = 0
KTH1 112328Z 05005KT 30/12 A3003 RMK A01 T02950116  RH  033%=      5-min Rain = 0
KTH1 112329Z 04005KT 30/12 A3003 RMK A01 T02950116  RH  033%=      5-min Rain = 0
KTH1 112330Z 04005KT 29/12 A3003 RMK A01 T02940117  RH  033%=      5-min Rain = 0
KTH1 112331Z 04006KT 29/11 A3003 RMK A01 T02940114  RH  033%=      5-min Rain = 0
KTH1 112332Z 03005KT 29/11 A3003 RMK A01 T02940112  RH  032%=      5-min Rain = 0
KTH1 112333Z 04006KT 29/11 A3003 RMK A01 T02940114  RH  033%=      5-min Rain = 0
KTH1 112334Z 04005KT 29/12 A3003 RMK A01 T02940116  RH  033%=      5-min Rain = 0
KTH1 112335Z 03005KT 29/11 A3003 RMK A01 T02930114  RH  033%=      5-min Rain = 0
KTH1 112336Z 03004KT 29/11 A3003 RMK A01 T02930114  RH  033%=      5-min Rain = 0
KTH1 112337Z 05004KT 29/11 A3003 RMK A01 T02930113  RH  033%=      5-min Rain = 0
KTH1 112338Z 03004KT 29/12 A3003 RMK A01 T02920115  RH  033%=      5-min Rain = 0
KTH1 112339Z 04003KT 29/12 A3003 RMK A01 T02920116  RH  034%=      5-min Rain = 0
KTH1 112340Z 04003KT 29/12 A3003 RMK A01 T02920118  RH  034%=      5-min Rain = 0
KTH1 112341Z 04002KT 29/12 A3003 RMK A01 T02920117  RH  034%=      5-min Rain = 0
KTH1 112342Z 04002KT 29/12 A3003 RMK A01 T02920118  RH  034%=      5-min Rain = 0
KTH1 112343Z 05003KT 29/12 A3003 RMK A01 T02920119  RH  034%=      5-min Rain = 0
KTH1 112344Z 02003KT 29/12 A3003 RMK A01 T02920118  RH  034%=      5-min Rain = 0
KTH1 112345Z 03003KT 29/12 A3002 RMK A01 T02920119  RH  034%=      5-min Rain = 0
KTH1 112346Z 04004KT 29/12 A3002 RMK A01 T02910118  RH  034%=      5-min Rain = 0
KTH1 112347Z 04006KT 29/12 A3002 RMK A01 T02910115  RH  034%=      5-min Rain = 0
KTH1 112348Z 03004KT 29/11 A3002 RMK A01 T02900114  RH  034%=      5-min Rain = 0
KTH1 112349Z 02003KT 29/12 A3002 RMK A01 T02900116  RH  034%=      5-min Rain = 0
KTH1 112350Z 02005KT 29/12 A3002 RMK A01 T02890116  RH  034%=      5-min Rain = 0
KTH1 112351Z 03005KT 29/11 A3002 RMK A01 T02890113  RH  034%=      5-min Rain = 0
KTH1 112352Z 05004KT 29/12 A3002 RMK A01 T02890115  RH  034%=      5-min Rain = 0
KTH1 112353Z 05005KT 29/12 A3002 RMK A01 T02880115  RH  034%=      5-min Rain = 0
KTH1 112354Z 04006KT 29/11 A3002 RMK A01 T02880111  RH  033%=      5-min Rain = 0
KTH1 112355Z 04005KT 29/11 A3002 RMK A01 T02870112  RH  034%=      5-min Rain = 0
KTH1 112356Z 04005KT 29/11 A3002 RMK A01 T02870112  RH  034%=      5-min Rain = 0
KTH1 112357Z 04003KT 29/11 A3002 RMK A01 T02870114  RH  034%=      5-min Rain = 0
KTH1 112358Z 05003KT 29/12 A3002 RMK A01 T02860115  RH  035%=      5-min Rain = 0
KTH1 112359Z 04004KT 29/12 A3002 RMK A01 T02860115  RH  035%=      5-min Rain = 0
KTH1 120000Z 04005KT 29/12 A3002 RMK A01 T02860116  RH  035%=      5-min Rain = 0
KTH1 120001Z 03004KT 29/11 A3002 RMK A01 T02860113  RH  034%=      5-min Rain = 0
KTH1 120002Z 05004KT 29/12 A3002 RMK A01 T02850116  RH  035%=      5-min Rain = 0
KTH1 120003Z 05004KT 29/12 A3002 RMK A01 T02850116  RH  035%=      5-min Rain = 0
KTH1 120004Z 04004KT 28/11 A3002 RMK A01 T02840113  RH  035%=      5-min Rain = 0
KTH1 120005Z 03004KT 28/11 A3002 RMK A01 T02840114  RH  035%=      5-min Rain = 0
KTH1 120006Z 04004KT 28/12 A3002 RMK A01 T02840116  RH  035%=      5-min Rain = 0
KTH1 120007Z 06004KT 28/12 A3002 RMK A01 T02830116  RH  035%=      5-min Rain = 0
KTH1 120008Z 05005KT 28/12 A3002 RMK A01 T02820117  RH  036%=      5-min Rain = 0
KTH1 120009Z 05005KT 28/11 A3002 RMK A01 T02820114  RH  035%=      5-min Rain = 0
KTH1 120010Z 05005KT 28/11 A3002 RMK A01 T02810114  RH  035%=      5-min Rain = 0
KTH1 120011Z 05004KT 28/11 A3002 RMK A01 T02810114  RH  035%=      5-min Rain = 0
KTH1 120012Z 05004KT 28/11 A3002 RMK A01 T02800114  RH  036%=      5-min Rain = 0
KTH1 120013Z 05004KT 28/12 A3002 RMK A01 T02800115  RH  036%=      5-min Rain = 0
KTH1 120014Z 05004KT 28/12 A3002 RMK A01 T02800115  RH  036%=      5-min Rain = 0
KTH1 120015Z 05004KT 28/12 A3002 RMK A01 T02790115  RH  036%=      5-min Rain = 0
KTH1 120016Z 05004KT 28/12 A3002 RMK A01 T02780117  RH  037%=      5-min Rain = 0
KTH1 120017Z 05004KT 28/12 A3002 RMK A01 T02780117  RH  037%=      5-min Rain = 0
KTH1 120018Z 05004KT 28/12 A3002 RMK A01 T02780116  RH  037%=      5-min Rain = 0
KTH1 120019Z 05004KT 28/12 A3002 RMK A01 T02770116  RH  037%=      5-min Rain = 0
KTH1 120020Z 05004KT 28/12 A3002 RMK A01 T02770117  RH  037%=      5-min Rain = 0
KTH1 120021Z 05004KT 28/12 A3002 RMK A01 T02760116  RH  037%=      5-min Rain = 0
KTH1 120022Z 05004KT 28/12 A3002 RMK A01 T02750116  RH  037%=      5-min Rain = 0
KTH1 120023Z 05004KT 27/12 A3002 RMK A01 T02740115  RH  037%=      5-min Rain = 0
KTH1 120024Z 05004KT 27/12 A3002 RMK A01 T02740115  RH  037%=      5-min Rain = 0
KTH1 120025Z 05004KT 27/11 A3002 RMK A01 T02730114  RH  037%=      5-min Rain = 0
KTH1 120026Z 05004KT 27/12 A3002 RMK A01 T02730115  RH  037%=      5-min Rain = 0
KTH1 120027Z 05004KT 27/12 A3002 RMK A01 T02720115  RH  038%=      5-min Rain = 0
KTH1 120028Z 04004KT 27/12 A3002 RMK A01 T02710115  RH  038%=      5-min Rain = 0
KTH1 120029Z 05004KT 27/12 A3002 RMK A01 T02710115  RH  038%=      5-min Rain = 0
KTH1 120030Z 05004KT 27/12 A3002 RMK A01 T02710115  RH  038%=      5-min Rain = 0
KTH1 120031Z 05004KT 27/12 A3002 RMK A01 T02700116  RH  038%=      5-min Rain = 0
KTH1 120032Z 04004KT 27/11 A3002 RMK A01 T02690114  RH  038%=      5-min Rain = 0
KTH1 120033Z 05004KT 27/11 A3002 RMK A01 T02680113  RH  038%=      5-min Rain = 0
KTH1 120034Z 05004KT 27/11 A3002 RMK A01 T02680113  RH  038%=      5-min Rain = 0
KTH1 120035Z 04005KT 27/11 A3002 RMK A01 T02670112  RH  038%=      5-min Rain = 0
KTH1 120036Z 05004KT 27/11 A3002 RMK A01 T02670112  RH  038%=      5-min Rain = 0
KTH1 120037Z 05005KT 27/11 A3002 RMK A01 T02660112  RH  038%=      5-min Rain = 0
KTH1 120038Z 04005KT 27/11 A3002 RMK A01 T02660112  RH  038%=      5-min Rain = 0
KTH1 120039Z 04005KT 27/11 A3002 RMK A01 T02650111  RH  038%=      5-min Rain = 0
KTH1 120040Z 04005KT 26/11 A3002 RMK A01 T02640111  RH  038%=      5-min Rain = 0
KTH1 120041Z 04004KT 26/11 A3002 RMK A01 T02640111  RH  038%=      5-min Rain = 0
KTH1 120042Z 05004KT 26/11 A3002 RMK A01 T02630110  RH  038%=      5-min Rain = 0
KTH1 120043Z 05004KT 26/11 A3002 RMK A01 T02630111  RH  039%=      5-min Rain = 0
KTH1 120044Z 05004KT 26/11 A3002 RMK A01 T02620111  RH  039%=      5-min Rain = 0
KTH1 120045Z 05004KT 26/11 A3002 RMK A01 T02610111  RH  039%=      5-min Rain = 0
KTH1 120046Z 05004KT 26/11 A3002 RMK A01 T02610111  RH  039%=      5-min Rain = 0
KTH1 120047Z 04004KT 26/11 A3002 RMK A01 T02600111  RH  039%=      5-min Rain = 0
KTH1 120048Z 04004KT 26/11 A3002 RMK A01 T02600111  RH  039%=      5-min Rain = 0
KTH1 120049Z 04003KT 26/11 A3002 RMK A01 T02590111  RH  039%=      5-min Rain = 0
KTH1 120050Z 04002KT 26/11 A3002 RMK A01 T02590111  RH  040%=      5-min Rain = 0
KTH1 120051Z 04002KT 26/11 A3002 RMK A01 T02580112  RH  040%=      5-min Rain = 0
KTH1 120052Z 04002KT 26/11 A3002 RMK A01 T02570112  RH  040%=      5-min Rain = 0
KTH1 120053Z 04003KT 26/11 A3002 RMK A01 T02560111  RH  040%=      5-min Rain = 0
KTH1 120054Z 04003KT 26/11 A3002 RMK A01 T02550110  RH  040%=      5-min Rain = 0
KTH1 120055Z 05003KT 25/11 A3002 RMK A01 T02540112  RH  041%=      5-min Rain = 0
KTH1 120056Z 05004KT 25/11 A3002 RMK A01 T02530112  RH  041%=      5-min Rain = 0
KTH1 120057Z 05004KT 25/11 A3002 RMK A01 T02520112  RH  041%=      5-min Rain = 0
KTH1 120058Z 06004KT 25/11 A3002 RMK A01 T02510112  RH  042%=      5-min Rain = 0
KTH1 120059Z 06004KT 25/11 A3002 RMK A01 T02500112  RH  042%=      5-min Rain = 0
KTH1 120100Z 06004KT 25/11 A3002 RMK A01 T02480112  RH  042%=      5-min Rain = 0
KTH1 120101Z 06003KT 25/11 A3002 RMK A01 T02470112  RH  043%=      5-min Rain = 0
KTH1 120102Z 06003KT 25/11 A3002 RMK A01 T02470112  RH  043%=      5-min Rain = 0
KTH1 120103Z 06003KT 25/11 A3002 RMK A01 T02460111  RH  043%=      5-min Rain = 0
KTH1 120104Z 06003KT 25/11 A3002 RMK A01 T02460112  RH  043%=      5-min Rain = 0
KTH1 120105Z 05004KT 25/11 A3002 RMK A01 T02450111  RH  043%=      5-min Rain = 0
KTH1 120106Z 05004KT 24/11 A3002 RMK A01 T02440111  RH  043%=      5-min Rain = 0
KTH1 120107Z 06004KT 24/11 A3002 RMK A01 T02440111  RH  043%=      5-min Rain = 0
KTH1 120108Z 07003KT 24/11 A3002 RMK A01 T02430112  RH  044%=      5-min Rain = 0
KTH1 120109Z 07003KT 24/11 A3002 RMK A01 T02430112  RH  044%=      5-min Rain = 0
KTH1 120110Z 08002KT 24/11 A3002 RMK A01 T02420112  RH  044%=      5-min Rain = 0
KTH1 120111Z 07002KT 24/11 A3002 RMK A01 T02420112  RH  044%=      5-min Rain = 0
KTH1 120112Z 06003KT 24/11 A3002 RMK A01 T02420112  RH  044%=      5-min Rain = 0
KTH1 120113Z 05003KT 24/11 A3002 RMK A01 T02410112  RH  044%=      5-min Rain = 0
KTH1 120114Z 05003KT 24/11 A3002 RMK A01 T02420111  RH  044%=      5-min Rain = 0
KTH1 120115Z 05003KT 24/11 A3002 RMK A01 T02410112  RH  044%=      5-min Rain = 0
KTH1 120116Z 05003KT 24/11 A3002 RMK A01 T02400111  RH  044%=      5-min Rain = 0
KTH1 120117Z 05003KT 24/11 A3002 RMK A01 T02400111  RH  044%=      5-min Rain = 0
KTH1 120118Z 05003KT 24/11 A3002 RMK A01 T02400111  RH  044%=      5-min Rain = 0
KTH1 120119Z 05003KT 24/11 A3002 RMK A01 T02400111  RH  044%=      5-min Rain = 0
KTH1 120120Z 05003KT 24/11 A3002 RMK A01 T02400110  RH  044%=      5-min Rain = 0
KTH1 120121Z 04002KT 24/11 A3002 RMK A01 T02400110  RH  044%=      5-min Rain = 0
KTH1 120122Z 04002KT 24/11 A3002 RMK A01 T02400110  RH  044%=      5-min Rain = 0
KTH1 120123Z 03002KT 24/11 A3002 RMK A01 T02390110  RH  044%=      5-min Rain = 0
KTH1 120124Z 04002KT 24/11 A3002 RMK A01 T02380110  RH  044%=      5-min Rain = 0
KTH1 120125Z 04002KT 24/11 A3002 RMK A01 T02370111  RH  045%=      5-min Rain = 0
KTH1 120126Z 04002KT 24/11 A3002 RMK A01 T02360110  RH  045%=      5-min Rain = 0
KTH1 120127Z 04002KT 24/12 A3002 RMK A01 T02360119  RH  048%=      5-min Rain = 0
KTH1 120128Z 04002KT 24/13 A3002 RMK A01 T02350130  RH  052%=      5-min Rain = 0
KTH1 120129Z 03002KT 23/15 A3002 RMK A01 T02340153  RH  060%=      5-min Rain = 0
KTH1 120130Z 03002KT 23/16 A3002 RMK A01 T02340158  RH  063%=      5-min Rain = 0
KTH1 120131Z 03002KT 23/16 A3002 RMK A01 T02330159  RH  063%=      5-min Rain = 0
KTH1 120132Z 03002KT 23/16 A3002 RMK A01 T02320160  RH  064%=      5-min Rain = 0
KTH1 120133Z 03002KT 23/16 A3003 RMK A01 T02310162  RH  065%=      5-min Rain = 0
KTH1 120134Z 04002KT 23/16 A3003 RMK A01 T02300159  RH  064%=      5-min Rain = 0
KTH1 120135Z 04002KT 23/17 A3003 RMK A01 T02290165  RH  067%=      5-min Rain = 0
KTH1 120136Z 03002KT 23/17 A3003 RMK A01 T02280167  RH  069%=      5-min Rain = 0
KTH1 120137Z 03002KT 23/17 A3003 RMK A01 T02270167  RH  069%=      5-min Rain = 0
KTH1 120138Z 02002KT 23/17 A3003 RMK A01 T02260166  RH  069%=      5-min Rain = 0
KTH1 120139Z 02002KT 23/17 A3003 RMK A01 T02260165  RH  069%=      5-min Rain = 0
KTH1 120140Z 01001KT 23/17 A3003 RMK A01 T02250165  RH  069%=      5-min Rain = 0
KTH1 120141Z 01002KT 23/17 A3003 RMK A01 T02250166  RH  069%=      5-min Rain = 0
KTH1 120142Z 01002KT 23/17 A3003 RMK A01 T02250167  RH  070%=      5-min Rain = 0
KTH1 120143Z 01002KT 22/17 A3003 RMK A01 T02240168  RH  070%=      5-min Rain = 0
KTH1 120144Z 02002KT 22/17 A3003 RMK A01 T02240170  RH  071%=      5-min Rain = 0
KTH1 120145Z 02001KT 22/17 A3003 RMK A01 T02240172  RH  072%=      5-min Rain = 0
KTH1 120146Z 02001KT 22/17 A3003 RMK A01 T02230171  RH  072%=      5-min Rain = 0
KTH1 120147Z 03001KT 22/17 A3003 RMK A01 T02220170  RH  072%=      5-min Rain = 0
KTH1 120148Z 03001KT 22/17 A3003 RMK A01 T02220169  RH  072%=      5-min Rain = 0
KTH1 120149Z 05002KT 22/17 A3003 RMK A01 T02210169  RH  072%=      5-min Rain = 0
KTH1 120150Z 04003KT 22/17 A3003 RMK A01 T02200165  RH  071%=      5-min Rain = 0
KTH1 120151Z 04003KT 22/15 A3003 RMK A01 T02200154  RH  066%=      5-min Rain = 0
KTH1 120152Z 05004KT 22/15 A3003 RMK A01 T02190151  RH  065%=      5-min Rain = 0
KTH1 120153Z 05003KT 22/14 A3003 RMK A01 T02200144  RH  062%=      5-min Rain = 0
KTH1 120154Z 05003KT 22/14 A3003 RMK A01 T02200141  RH  061%=      5-min Rain = 0
KTH1 120155Z 04003KT 22/13 A3003 RMK A01 T02190132  RH  058%=      5-min Rain = 0
KTH1 120156Z 05003KT 22/13 A3003 RMK A01 T02190128  RH  056%=      5-min Rain = 0
KTH1 120157Z 04004KT 22/12 A3003 RMK A01 T02190121  RH  054%=      5-min Rain = 0
KTH1 120158Z 04003KT 22/12 A3003 RMK A01 T02190119  RH  053%=      5-min Rain = 0
KTH1 120159Z 04003KT 22/12 A3003 RMK A01 T02200117  RH  052%=      5-min Rain = 0
KTH1 120200Z 03002KT 22/12 A3003 RMK A01 T02210118  RH  052%=      5-min Rain = 0
KTH1 120201Z 03002KT 22/12 A3003 RMK A01 T02220118  RH  052%=      5-min Rain = 0
KTH1 120202Z 04003KT 22/13 A3003 RMK A01 T02220128  RH  055%=      5-min Rain = 0
KTH1 120203Z 04002KT 22/14 A3003 RMK A01 T02230140  RH  059%=      5-min Rain = 0
KTH1 120204Z 04003KT 22/14 A3003 RMK A01 T02230140  RH  060%=      5-min Rain = 0
KTH1 120205Z 05003KT 22/13 A3003 RMK A01 T02230129  RH  055%=      5-min Rain = 0
KTH1 120206Z 05002KT 22/12 A3003 RMK A01 T02220117  RH  051%=      5-min Rain = 0
KTH1 120207Z 05003KT 22/11 A3003 RMK A01 T02220114  RH  051%=      5-min Rain = 0
KTH1 120208Z 06002KT 22/11 A3003 RMK A01 T02210114  RH  050%=      5-min Rain = 0
KTH1 120209Z 06002KT 22/11 A3003 RMK A01 T02210113  RH  050%=      5-min Rain = 0
KTH1 120210Z 06003KT 22/11 A3003 RMK A01 T02210112  RH  050%=      5-min Rain = 0
KTH1 120211Z 05002KT 22/11 A3004 RMK A01 T02220112  RH  050%=      5-min Rain = 0
KTH1 120212Z 05003KT 22/11 A3004 RMK A01 T02220112  RH  050%=      5-min Rain = 0
KTH1 120213Z 04002KT 22/11 A3004 RMK A01 T02230112  RH  049%=      5-min Rain = 0
KTH1 120214Z 05002KT 22/11 A3004 RMK A01 T02230112  RH  049%=      5-min Rain = 0
KTH1 120215Z 05002KT 22/11 A3004 RMK A01 T02230112  RH  049%=      5-min Rain = 0
KTH1 120216Z 04002KT 22/11 A3004 RMK A01 T02240112  RH  049%=      5-min Rain = 0
KTH1 120217Z 04002KT 22/11 A3004 RMK A01 T02240112  RH  049%=      5-min Rain = 0
KTH1 120218Z 05002KT 22/11 A3004 RMK A01 T02240112  RH  049%=      5-min Rain = 0
KTH1 120219Z 05002KT 22/11 A3004 RMK A01 T02230112  RH  049%=      5-min Rain = 0
KTH1 120220Z 04002KT 22/11 A3004 RMK A01 T02240113  RH  049%=      5-min Rain = 0
KTH1 120221Z 04002KT 22/11 A3004 RMK A01 T02240113  RH  049%=      5-min Rain = 0
KTH1 120222Z 04002KT 22/11 A3004 RMK A01 T02240113  RH  049%=      5-min Rain = 0
KTH1 120223Z 04002KT 22/11 A3004 RMK A01 T02230113  RH  050%=      5-min Rain = 0
KTH1 120224Z 04002KT 22/11 A3004 RMK A01 T02230113  RH  050%=      5-min Rain = 0
KTH1 120225Z 04003KT 22/11 A3004 RMK A01 T02220113  RH  050%=      5-min Rain = 0
KTH1 120226Z 05003KT 22/11 A3004 RMK A01 T02220112  RH  050%=      5-min Rain = 0
KTH1 120227Z 05003KT 22/11 A3004 RMK A01 T02210112  RH  050%=      5-min Rain = 0
KTH1 120228Z 05003KT 22/11 A3004 RMK A01 T02200111  RH  050%=      5-min Rain = 0
KTH1 120229Z 06003KT 22/11 A3004 RMK A01 T02200111  RH  050%=      5-min Rain = 0
KTH1 120230Z 06002KT 22/11 A3004 RMK A01 T02190111  RH  050%=      5-min Rain = 0
KTH1 120231Z 07002KT 22/11 A3004 RMK A01 T02180110  RH  050%=      5-min Rain = 0
KTH1 120232Z 07002KT 22/11 A3004 RMK A01 T02170110  RH  050%=      5-min Rain = 0
KTH1 120233Z 06002KT 22/11 A3004 RMK A01 T02160109  RH  051%=      5-min Rain = 0
KTH1 120234Z 06001KT 22/11 A3004 RMK A01 T02160110  RH  051%=      5-min Rain = 0
KTH1 120235Z 07001KT 22/11 A3004 RMK A01 T02170110  RH  051%=      5-min Rain = 0
KTH1 120236Z 07001KT 22/11 A3004 RMK A01 T02170110  RH  051%=      5-min Rain = 0
KTH1 120237Z 06001KT 22/11 A3004 RMK A01 T02160112  RH  051%=      5-min Rain = 0
KTH1 120238Z 05001KT 22/12 A3004 RMK A01 T02170120  RH  054%=      5-min Rain = 0
KTH1 120239Z 05001KT 22/14 A3004 RMK A01 T02170138  RH  061%=      5-min Rain = 0
KTH1 120240Z 05001KT 22/15 A3004 RMK A01 T02170147  RH  065%=      5-min Rain = 0
KTH1 120241Z 04001KT 22/15 A3004 RMK A01 T02160152  RH  067%=      5-min Rain = 0
KTH1 120242Z 02001KT 22/15 A3004 RMK A01 T02150153  RH  068%=      5-min Rain = 0
KTH1 120243Z 33001KT 21/15 A3004 RMK A01 T02140154  RH  068%=      5-min Rain = 0
KTH1 120244Z 31001KT 21/16 A3004 RMK A01 T02130156  RH  070%=      5-min Rain = 0
KTH1 120245Z 32001KT 21/16 A3004 RMK A01 T02130156  RH  070%=      5-min Rain = 0
KTH1 120246Z 32000KT 21/15 A3004 RMK A01 T02110154  RH  070%=      5-min Rain = 0
KTH1 120247Z 01001KT 21/15 A3004 RMK A01 T02100152  RH  069%=      5-min Rain = 0
KTH1 120248Z 00001KT 21/15 A3004 RMK A01 T02100154  RH  071%=      5-min Rain = 0
KTH1 120249Z 35001KT 21/16 A3004 RMK A01 T02080155  RH  071%=      5-min Rain = 0
KTH1 120250Z 33001KT 21/15 A3004 RMK A01 T02070153  RH  071%=      5-min Rain = 0
KTH1 120251Z 31001KT 21/15 A3004 RMK A01 T02060154  RH  072%=      5-min Rain = 0
KTH1 120252Z 30001KT 21/16 A3004 RMK A01 T02050155  RH  073%=      5-min Rain = 0
KTH1 120253Z 30001KT 20/16 A3004 RMK A01 T02040155  RH  073%=      5-min Rain = 0
KTH1 120254Z 29001KT 20/16 A3004 RMK A01 T02030156  RH  074%=      5-min Rain = 0
KTH1 120255Z 33001KT 20/16 A3004 RMK A01 T02030158  RH  075%=      5-min Rain = 0
KTH1 120256Z 30001KT 20/16 A3004 RMK A01 T02030159  RH  076%=      5-min Rain = 0
KTH1 120257Z 28001KT 20/16 A3004 RMK A01 T02030158  RH  075%=      5-min Rain = 0
KTH1 120258Z 31000KT 20/16 A3004 RMK A01 T02020158  RH  076%=      5-min Rain = 0
KTH1 120259Z 35000KT 20/16 A3004 RMK A01 T02020157  RH  076%=      5-min Rain = 0
KTH1 120300Z 01000KT 20/16 A3004 RMK A01 T02010158  RH  076%=      5-min Rain = 0
KTH1 120301Z 03000KT 20/16 A3004 RMK A01 T02010158  RH  076%=      5-min Rain = 0
KTH1 120302Z 05000KT 20/16 A3004 RMK A01 T02000159  RH  077%=      5-min Rain = 0
KTH1 120303Z 03000KT 20/16 A3004 RMK A01 T02000158  RH  077%=      5-min Rain = 0
KTH1 120304Z 01000KT 20/16 A3004 RMK A01 T02000157  RH  076%=      5-min Rain = 0
KTH1 120305Z 35000KT 20/16 A3004 RMK A01 T01990156  RH  076%=      5-min Rain = 0
KTH1 120306Z 32000KT 20/16 A3004 RMK A01 T01990156  RH  076%=      5-min Rain = 0
KTH1 120307Z 32000KT 20/16 A3004 RMK A01 T02000156  RH  076%=      5-min Rain = 0
KTH1 120308Z 31000KT 20/16 A3004 RMK A01 T01990157  RH  077%=      5-min Rain = 0
KTH1 120309Z 00000KT 20/16 A3004 RMK A01 T01990156  RH  076%=      5-min Rain = 0
KTH1 120310Z 00000KT 20/16 A3004 RMK A01 T01990155  RH  076%=      5-min Rain = 0
KTH1 120311Z 00000KT 20/15 A3005 RMK A01 T01980154  RH  076%=      5-min Rain = 0
KTH1 120312Z 06000KT 20/15 A3005 RMK A01 T01970154  RH  076%=      5-min Rain = 0
KTH1 120313Z 35000KT 20/16 A3005 RMK A01 T01970155  RH  076%=      5-min Rain = 0
KTH1 120314Z 00000KT 20/16 A3005 RMK A01 T01970155  RH  077%=      5-min Rain = 0
KTH1 120315Z 04000KT 20/16 A3005 RMK A01 T01970156  RH  077%=      5-min Rain = 0
KTH1 120316Z 00000KT 20/16 A3005 RMK A01 T01970156  RH  077%=      5-min Rain = 0
KTH1 120317Z 00000KT 20/16 A3005 RMK A01 T01970156  RH  077%=      5-min Rain = 0
KTH1 120318Z 00000KT 20/16 A3005 RMK A01 T01960156  RH  078%=      5-min Rain = 0
KTH1 120319Z 30001KT 20/16 A3005 RMK A01 T01960156  RH  077%=      5-min Rain = 0
KTH1 120320Z 29001KT 20/16 A3005 RMK A01 T01960155  RH  077%=      5-min Rain = 0
KTH1 120321Z 25001KT 20/15 A3005 RMK A01 T01960154  RH  077%=      5-min Rain = 0
KTH1 120322Z 28001KT 20/15 A3005 RMK A01 T01960154  RH  077%=      5-min Rain = 0
KTH1 120323Z 26001KT 20/15 A3005 RMK A01 T01950154  RH  077%=      5-min Rain = 0
KTH1 120324Z 26002KT 20/15 A3005 RMK A01 T01950153  RH  076%=      5-min Rain = 0
KTH1 120325Z 26001KT 19/15 A3005 RMK A01 T01940150  RH  076%=      5-min Rain = 0
KTH1 120326Z 27002KT 19/15 A3005 RMK A01 T01930148  RH  075%=      5-min Rain = 0
KTH1 120327Z 27002KT 19/15 A3005 RMK A01 T01930147  RH  075%=      5-min Rain = 0
KTH1 120328Z 26002KT 19/15 A3005 RMK A01 T01930147  RH  075%=      5-min Rain = 0
KTH1 120329Z 26002KT 19/15 A3005 RMK A01 T01920148  RH  075%=      5-min Rain = 0
KTH1 120330Z 26002KT 19/15 A3005 RMK A01 T01920147  RH  075%=      5-min Rain = 0
KTH1 120331Z 25002KT 19/15 A3005 RMK A01 T01910147  RH  075%=      5-min Rain = 0
KTH1 120332Z 24001KT 19/15 A3005 RMK A01 T01910146  RH  075%=      5-min Rain = 0
KTH1 120333Z 26001KT 19/15 A3005 RMK A01 T01910147  RH  076%=      5-min Rain = 0
KTH1 120334Z 25001KT 19/15 A3005 RMK A01 T01900146  RH  075%=      5-min Rain = 0
KTH1 120335Z 25001KT 19/14 A3005 RMK A01 T01900144  RH  075%=      5-min Rain = 0
KTH1 120336Z 26001KT 19/14 A3005 RMK A01 T01890144  RH  075%=      5-min Rain = 0
KTH1 120337Z 27001KT 19/14 A3005 RMK A01 T01890144  RH  075%=      5-min Rain = 0
KTH1 120338Z 28000KT 19/14 A3005 RMK A01 T01890143  RH  075%=      5-min Rain = 0
KTH1 120339Z 10000KT 19/14 A3005 RMK A01 T01890142  RH  074%=      5-min Rain = 0
KTH1 120340Z 10001KT 19/14 A3005 RMK A01 T01890141  RH  074%=      5-min Rain = 0
KTH1 120341Z 12000KT 19/14 A3005 RMK A01 T01890142  RH  074%=      5-min Rain = 0
KTH1 120342Z 10001KT 19/14 A3005 RMK A01 T01890142  RH  074%=      5-min Rain = 0
KTH1 120343Z 11000KT 19/14 A3005 RMK A01 T01890143  RH  074%=      5-min Rain = 0
KTH1 120344Z 00000KT 19/14 A3005 RMK A01 T01890143  RH  074%=      5-min Rain = 0
KTH1 120345Z 09000KT 19/15 A3005 RMK A01 T01890145  RH  076%=      5-min Rain = 0
KTH1 120346Z 09000KT 19/15 A3005 RMK A01 T01890145  RH  076%=      5-min Rain = 0
KTH1 120347Z 13000KT 19/14 A3005 RMK A01 T01880144  RH  075%=      5-min Rain = 0
KTH1 120348Z 10000KT 19/14 A3005 RMK A01 T01880143  RH  075%=      5-min Rain = 0
KTH1 120349Z 00000KT 19/14 A3005 RMK A01 T01880144  RH  076%=      5-min Rain = 0
KTH1 120350Z 09000KT 19/15 A3005 RMK A01 T01880145  RH  076%=      5-min Rain = 0
KTH1 120351Z 00000KT 19/15 A3005 RMK A01 T01870145  RH  077%=      5-min Rain = 0
KTH1 120352Z 00000KT 19/15 A3005 RMK A01 T01870146  RH  077%=      5-min Rain = 0
KTH1 120353Z 00000KT 19/15 A3005 RMK A01 T01870147  RH  078%=      5-min Rain = 0
KTH1 120354Z 00000KT 19/15 A3005 RMK A01 T01860146  RH  078%=      5-min Rain = 0
KTH1 120355Z 00000KT 19/15 A3005 RMK A01 T01870147  RH  077%=      5-min Rain = 0
KTH1 120356Z 00000KT 19/15 A3005 RMK A01 T01860145  RH  077%=      5-min Rain = 0
KTH1 120357Z 00000KT 19/14 A3005 RMK A01 T01860144  RH  076%=      5-min Rain = 0
KTH1 120358Z 29000KT 19/14 A3005 RMK A01 T01860144  RH  076%=      5-min Rain = 0
KTH1 120359Z 27000KT 19/14 A3005 RMK A01 T01850143  RH  076%=      5-min Rain = 0
KTH1 120400Z 29000KT 19/14 A3005 RMK A01 T01850141  RH  075%=      5-min Rain = 0
KTH1 120401Z 26000KT 19/14 A3005 RMK A01 T01850141  RH  076%=      5-min Rain = 0
KTH1 120402Z 26001KT 19/14 A3005 RMK A01 T01850141  RH  076%=      5-min Rain = 0
KTH1 120403Z 27001KT 18/14 A3005 RMK A01 T01840142  RH  077%=      5-min Rain = 0
KTH1 120404Z 26001KT 18/14 A3005 RMK A01 T01840144  RH  077%=      5-min Rain = 0
KTH1 120405Z 26001KT 18/14 A3005 RMK A01 T01840144  RH  078%=      5-min Rain = 0
KTH1 120406Z 26001KT 18/14 A3005 RMK A01 T01840144  RH  078%=      5-min Rain = 0
KTH1 120407Z 26001KT 18/14 A3005 RMK A01 T01830144  RH  078%=      5-min Rain = 0
KTH1 120408Z 26001KT 18/14 A3005 RMK A01 T01830144  RH  078%=      5-min Rain = 0
KTH1 120409Z 26001KT 18/14 A3005 RMK A01 T01820144  RH  078%=      5-min Rain = 0
KTH1 120410Z 25001KT 18/14 A3005 RMK A01 T01820144  RH  079%=      5-min Rain = 0
KTH1 120411Z 25001KT 18/15 A3005 RMK A01 T01810145  RH  079%=      5-min Rain = 0
KTH1 120412Z 25001KT 18/15 A3005 RMK A01 T01810146  RH  080%=      5-min Rain = 0
KTH1 120413Z 25001KT 18/15 A3005 RMK A01 T01800146  RH  080%=      5-min Rain = 0
KTH1 120414Z 25001KT 18/15 A3005 RMK A01 T01800146  RH  080%=      5-min Rain = 0
KTH1 120415Z 24000KT 18/15 A3005 RMK A01 T01800147  RH  081%=      5-min Rain = 0
KTH1 120416Z 00000KT 18/15 A3005 RMK A01 T01800146  RH  081%=      5-min Rain = 0
KTH1 120417Z 00000KT 18/15 A3005 RMK A01 T01800147  RH  081%=      5-min Rain = 0
KTH1 120418Z 25000KT 18/15 A3005 RMK A01 T01800147  RH  081%=      5-min Rain = 0
KTH1 120419Z 26001KT 18/15 A3005 RMK A01 T01790147  RH  081%=      5-min Rain = 0
KTH1 120420Z 00000KT 18/15 A3005 RMK A01 T01790147  RH  082%=      5-min Rain = 0
KTH1 120421Z 00000KT 18/15 A3005 RMK A01 T01790147  RH  082%=      5-min Rain = 0
KTH1 120422Z 27000KT 18/15 A3005 RMK A01 T01790147  RH  082%=      5-min Rain = 0
KTH1 120423Z 27000KT 18/15 A3005 RMK A01 T01790147  RH  081%=      5-min Rain = 0
KTH1 120424Z 27000KT 18/15 A3005 RMK A01 T01790147  RH  081%=      5-min Rain = 0
KTH1 120425Z 27000KT 18/15 A3005 RMK A01 T01790145  RH  081%=      5-min Rain = 0
KTH1 120426Z 25001KT 18/14 A3005 RMK A01 T01780144  RH  081%=      5-min Rain = 0
KTH1 120427Z 24001KT 18/15 A3005 RMK A01 T01780145  RH  081%=      5-min Rain = 0
KTH1 120428Z 24001KT 18/14 A3005 RMK A01 T01780144  RH  081%=      5-min Rain = 0
KTH1 120429Z 24001KT 18/14 A3005 RMK A01 T01770144  RH  081%=      5-min Rain = 0
KTH1 120430Z 24001KT 18/14 A3005 RMK A01 T01760143  RH  081%=      5-min Rain = 0
KTH1 120431Z 25001KT 18/14 A3005 RMK A01 T01760142  RH  081%=      5-min Rain = 0
KTH1 120432Z 25001KT 18/14 A3005 RMK A01 T01750142  RH  081%=      5-min Rain = 0
KTH1 120433Z 25001KT 18/14 A3005 RMK A01 T01760142  RH  081%=      5-min Rain = 0
KTH1 120434Z 25002KT 18/14 A3005 RMK A01 T01750142  RH  081%=      5-min Rain = 0
KTH1 120435Z 25002KT 18/14 A3005 RMK A01 T01750142  RH  081%=      5-min Rain = 0
KTH1 120436Z 25002KT 18/14 A3005 RMK A01 T01750142  RH  081%=      5-min Rain = 0
KTH1 120437Z 25002KT 17/14 A3005 RMK A01 T01740141  RH  081%=      5-min Rain = 0
KTH1 120438Z 25002KT 17/14 A3005 RMK A01 T01740140  RH  081%=      5-min Rain = 0
KTH1 120439Z 25002KT 17/14 A3005 RMK A01 T01740139  RH  080%=      5-min Rain = 0
KTH1 120440Z 25002KT 17/14 A3005 RMK A01 T01730138  RH  080%=      5-min Rain = 0
KTH1 120441Z 25002KT 17/14 A3005 RMK A01 T01730138  RH  079%=      5-min Rain = 0
KTH1 120442Z 25001KT 17/14 A3005 RMK A01 T01730137  RH  079%=      5-min Rain = 0
KTH1 120443Z 24001KT 17/14 A3005 RMK A01 T01730137  RH  079%=      5-min Rain = 0
KTH1 120444Z 24001KT 17/14 A3005 RMK A01 T01730137  RH  079%=      5-min Rain = 0
KTH1 120445Z 24001KT 17/14 A3005 RMK A01 T01730137  RH  079%=      5-min Rain = 0
KTH1 120446Z 23001KT 17/14 A3005 RMK A01 T01730136  RH  079%=      5-min Rain = 0
KTH1 120447Z 22001KT 17/14 A3005 RMK A01 T01730136  RH  079%=      5-min Rain = 0
KTH1 120448Z 22001KT 17/14 A3005 RMK A01 T01730136  RH  079%=      5-min Rain = 0
KTH1 120449Z 24001KT 17/14 A3005 RMK A01 T01730136  RH  079%=      5-min Rain = 0
KTH1 120450Z 25001KT 17/14 A3005 RMK A01 T01730137  RH  080%=      5-min Rain = 0
KTH1 120451Z 26001KT 17/14 A3005 RMK A01 T01730138  RH  080%=      5-min Rain = 0
KTH1 120452Z 27001KT 17/14 A3005 RMK A01 T01730139  RH  080%=      5-min Rain = 0
KTH1 120453Z 27002KT 17/14 A3005 RMK A01 T01730139  RH  081%=      5-min Rain = 0
KTH1 120454Z 27002KT 17/14 A3005 RMK A01 T01730140  RH  081%=      5-min Rain = 0
KTH1 120455Z 27001KT 17/14 A3005 RMK A01 T01730141  RH  081%=      5-min Rain = 0
KTH1 120456Z 27002KT 17/14 A3005 RMK A01 T01730142  RH  082%=      5-min Rain = 0
KTH1 120457Z 27002KT 17/14 A3005 RMK A01 T01730142  RH  082%=      5-min Rain = 0
KTH1 120458Z 28001KT 17/14 A3005 RMK A01 T01730143  RH  083%=      5-min Rain = 0
KTH1 120459Z 27001KT 17/14 A3005 RMK A01 T01730142  RH  082%=      5-min Rain = 0

Page generated in 0.1431 seconds.